PWSweather.com
Personal Weather Stations
Station Observations

AlkmaarNL

Lat: 52.6303736, Lon: 4.737476499999957

Elevation: 20

Station Type: Fine Offset WH3080 (Alecto WS-5000 Eco)

http://www.alkmaarweer.nl

Latest ConditionsUpdated 7:29:01 AM GMT+01:01 Saturday, Jan 18, 2020
Currently Today's Max Today's Min Today's Average
Temperature 42.1°F5.6°C 43.3°F6.3°C 41.7°F5.4°C 42.3°F5.7°C
Dew Point 37.3°F2.9°C 37.3°F2.9°C 35.3°F1.8°C 36.6°F2.6°C
Winds 3.9 mph WSW6.3 kmh WSW 11.7 mph -18.8 kmh - - 6.1 mph 9.8 kmh
Wind Gusts 4.5 mph7.2 kmh 15.9 mph25.6 kmh - -
Humidity 83% 83% 74% 80%
Pressure 30.11 in1019.6 mb 30.11 in1019.6 mb 30.03 in1016.9 mb -
Hour Temp Dew Point Humidity Winds Wind Gusts Pressure Precip Precip Rate Daily Precip Total
07:29 AM 42.1°F5.6°C 37.3°F2.9°C 83% 3.9 mph WSW6.3 kmh WSW 4.5 mph7.2 kmh 30.11 in1019.6 mb 0.00 in0.0 mm 0.00 in0.0 mm 0.00 in0.0 mm
07:28 AM 42.1°F5.6°C 37.3°F2.9°C 83% 4.0 mph WSW6.4 kmh WSW 4.5 mph7.2 kmh 30.11 in1019.6 mb 0.00 in0.0 mm 0.00 in0.0 mm 0.00 in0.0 mm
07:27 AM 42.1°F5.6°C 37.3°F2.9°C 83% 4.0 mph WSW6.4 kmh WSW 4.5 mph7.2 kmh 30.11 in1019.6 mb 0.00 in0.0 mm 0.00 in0.0 mm 0.00 in0.0 mm
07:26 AM 42.1°F5.6°C 37.3°F2.9°C 83% 4.0 mph WSW6.4 kmh WSW 4.5 mph7.2 kmh 30.11 in1019.6 mb 0.00 in0.0 mm 0.00 in0.0 mm 0.00 in0.0 mm
07:25 AM 42.1°F5.6°C 37.3°F2.9°C 83% 3.9 mph SW6.3 kmh SW 4.5 mph7.2 kmh 30.11 in1019.6 mb 0.00 in0.0 mm 0.00 in0.0 mm 0.00 in0.0 mm
07:24 AM 42.1°F5.6°C 37.3°F2.9°C 83% 3.9 mph SW6.3 kmh SW 4.5 mph7.2 kmh 30.11 in1019.6 mb 0.00 in0.0 mm 0.00 in0.0 mm 0.00 in0.0 mm
07:23 AM 42.1°F5.6°C 37.3°F2.9°C 83% 3.9 mph SW6.3 kmh SW 6.0 mph9.7 kmh 30.11 in1019.6 mb 0.00 in0.0 mm 0.00 in0.0 mm 0.00 in0.0 mm
07:22 AM 41.9°F5.5°C 37.1°F2.8°C 83% 3.9 mph SW6.3 kmh SW 6.0 mph9.7 kmh 30.11 in1019.6 mb 0.00 in0.0 mm 0.00 in0.0 mm 0.00 in0.0 mm
07:21 AM 42.1°F5.6°C 37.3°F2.9°C 83% 3.8 mph SW6.1 kmh SW 6.0 mph9.7 kmh 30.11 in1019.6 mb 0.00 in0.0 mm 0.00 in0.0 mm 0.00 in0.0 mm
07:20 AM 41.9°F5.5°C 37.1°F2.8°C 83% 3.8 mph W6.1 kmh W 6.0 mph9.7 kmh 30.11 in1019.6 mb 0.00 in0.0 mm 0.00 in0.0 mm 0.00 in0.0 mm
07:19 AM 42.1°F5.6°C 37.3°F2.9°C 83% 4.2 mph NW6.8 kmh NW 7.6 mph12.2 kmh 30.11 in1019.6 mb 0.00 in0.0 mm 0.00 in0.0 mm 0.00 in0.0 mm
07:18 AM 41.9°F5.5°C 37.1°F2.8°C 83% 4.5 mph NW7.2 kmh NW 7.6 mph12.2 kmh 30.10 in1019.3 mb 0.00 in0.0 mm 0.00 in0.0 mm 0.00 in0.0 mm
07:17 AM 42.1°F5.6°C 37.3°F2.9°C 83% 4.6 mph NNW7.4 kmh NNW 7.6 mph12.2 kmh 30.10 in1019.3 mb 0.00 in0.0 mm 0.00 in0.0 mm 0.00 in0.0 mm
07:16 AM 42.1°F5.6°C 37.3°F2.9°C 83% 4.8 mph NW7.7 kmh NW 7.6 mph12.2 kmh 30.11 in1019.6 mb 0.00 in0.0 mm 0.00 in0.0 mm 0.00 in0.0 mm
07:15 AM 42.1°F5.6°C 37.3°F2.9°C 83% 4.9 mph NNW7.9 kmh NNW 7.6 mph12.2 kmh 30.11 in1019.6 mb 0.00 in0.0 mm 0.00 in0.0 mm 0.00 in0.0 mm
07:14 AM 42.1°F5.6°C 37.3°F2.9°C 83% 5.1 mph NW8.2 kmh NW 7.6 mph12.2 kmh 30.10 in1019.3 mb 0.00 in0.0 mm 0.00 in0.0 mm 0.00 in0.0 mm
07:13 AM 42.1°F5.6°C 37.3°F2.9°C 83% 5.0 mph NW8.0 kmh NW 7.6 mph12.2 kmh 30.10 in1019.3 mb 0.00 in0.0 mm 0.00 in0.0 mm 0.00 in0.0 mm
07:12 AM 41.9°F5.5°C 37.1°F2.8°C 83% 4.9 mph WNW7.9 kmh WNW 7.6 mph12.2 kmh 30.11 in1019.6 mb 0.00 in0.0 mm 0.00 in0.0 mm 0.00 in0.0 mm
07:11 AM 41.9°F5.5°C 37.1°F2.8°C 83% 4.8 mph W7.7 kmh W 7.6 mph12.2 kmh 30.11 in1019.6 mb 0.00 in0.0 mm 0.00 in0.0 mm 0.00 in0.0 mm
07:10 AM 41.9°F5.5°C 37.1°F2.8°C 83% 4.7 mph W7.6 kmh W 7.6 mph12.2 kmh 30.11 in1019.6 mb 0.00 in0.0 mm 0.00 in0.0 mm 0.00 in0.0 mm
07:09 AM 41.9°F5.5°C 37.1°F2.8°C 83% 4.4 mph WSW7.1 kmh WSW 6.9 mph11.1 kmh 30.11 in1019.6 mb 0.00 in0.0 mm 0.00 in0.0 mm 0.00 in0.0 mm
07:08 AM 41.9°F5.5°C 37.1°F2.8°C 83% 4.4 mph WSW7.1 kmh WSW 6.0 mph9.7 kmh 30.10 in1019.3 mb 0.00 in0.0 mm 0.00 in0.0 mm 0.00 in0.0 mm
07:07 AM 41.9°F5.5°C 37.1°F2.8°C 83% 4.5 mph W7.2 kmh W 6.0 mph9.7 kmh 30.10 in1019.3 mb 0.00 in0.0 mm 0.00 in0.0 mm 0.00 in0.0 mm
07:06 AM 41.9°F5.5°C 37.1°F2.8°C 83% 4.5 mph W7.2 kmh W 6.0 mph9.7 kmh 30.10 in1019.3 mb 0.00 in0.0 mm 0.00 in0.0 mm 0.00 in0.0 mm
07:05 AM 41.9°F5.5°C 37.1°F2.8°C 83% 4.4 mph WSW7.1 kmh WSW 6.0 mph9.7 kmh 30.10 in1019.3 mb 0.00 in0.0 mm 0.00 in0.0 mm 0.00 in0.0 mm
07:04 AM 41.9°F5.5°C 37.1°F2.8°C 83% 4.1 mph WSW6.6 kmh WSW 6.0 mph9.7 kmh 30.10 in1019.3 mb 0.00 in0.0 mm 0.00 in0.0 mm 0.00 in0.0 mm
07:03 AM 41.9°F5.5°C 37.1°F2.8°C 83% 3.9 mph WSW6.3 kmh WSW 6.0 mph9.7 kmh 30.10 in1019.3 mb 0.00 in0.0 mm 0.00 in0.0 mm 0.00 in0.0 mm
07:02 AM 41.9°F5.5°C 37.1°F2.8°C 83% 3.8 mph WSW6.1 kmh WSW 6.0 mph9.7 kmh 30.10 in1019.3 mb 0.00 in0.0 mm 0.00 in0.0 mm 0.00 in0.0 mm
07:01 AM 41.9°F5.5°C 37.1°F2.8°C 83% 4.0 mph WSW6.4 kmh WSW 6.0 mph9.7 kmh 30.10 in1019.3 mb 0.00 in0.0 mm 0.00 in0.0 mm 0.00 in0.0 mm
07:00 AM 41.9°F5.5°C 37.1°F2.8°C 83% 4.2 mph WSW6.8 kmh WSW 6.0 mph9.7 kmh 30.10 in1019.3 mb 0.00 in0.0 mm 0.00 in0.0 mm 0.00 in0.0 mm
06:59 AM 41.9°F5.5°C 37.1°F2.8°C 83% 4.2 mph SW6.8 kmh SW 6.0 mph9.7 kmh 30.10 in1019.3 mb 0.00 in0.0 mm 0.00 in0.0 mm 0.00 in0.0 mm
06:58 AM 41.9°F5.5°C 36.8°F2.7°C 82% 4.2 mph WSW6.8 kmh WSW 6.0 mph9.7 kmh 30.10 in1019.3 mb 0.00 in0.0 mm 0.00 in0.0 mm 0.00 in0.0 mm
06:57 AM 41.7°F5.4°C 36.6°F2.6°C 82% 4.1 mph SW6.6 kmh SW 6.0 mph9.7 kmh 30.10 in1019.3 mb 0.00 in0.0 mm 0.00 in0.0 mm 0.00 in0.0 mm
06:56 AM 41.7°F5.4°C 36.6°F2.6°C 82% 3.8 mph SW6.1 kmh SW 6.0 mph9.7 kmh 30.10 in1019.3 mb 0.00 in0.0 mm 0.00 in0.0 mm 0.00 in0.0 mm
06:55 AM 41.7°F5.4°C 36.6°F2.6°C 82% 3.7 mph WSW6.0 kmh WSW 6.0 mph9.7 kmh 30.10 in1019.3 mb 0.00 in0.0 mm 0.00 in0.0 mm 0.00 in0.0 mm
06:54 AM 41.7°F5.4°C 36.6°F2.6°C 82% 4.0 mph WSW6.4 kmh WSW 8.3 mph13.4 kmh 30.10 in1019.3 mb 0.00 in0.0 mm 0.00 in0.0 mm 0.00 in0.0 mm
06:53 AM 41.7°F5.4°C 36.6°F2.6°C 82% 4.4 mph WSW7.1 kmh WSW 8.3 mph13.4 kmh 30.10 in1019.3 mb 0.00 in0.0 mm 0.00 in0.0 mm 0.00 in0.0 mm
06:52 AM 41.7°F5.4°C 36.6°F2.6°C 82% 4.7 mph WSW7.6 kmh WSW 8.3 mph13.4 kmh 30.10 in1019.3 mb 0.00 in0.0 mm 0.00 in0.0 mm 0.00 in0.0 mm
06:51 AM 41.7°F5.4°C 36.6°F2.6°C 82% 4.8 mph WSW7.7 kmh WSW 8.3 mph13.4 kmh 30.10 in1019.3 mb 0.00 in0.0 mm 0.00 in0.0 mm 0.00 in0.0 mm
06:50 AM 41.7°F5.4°C 36.6°F2.6°C 82% 4.7 mph SW7.6 kmh SW 8.3 mph13.4 kmh 30.10 in1019.3 mb 0.00 in0.0 mm 0.00 in0.0 mm 0.00 in0.0 mm
06:49 AM 41.7°F5.4°C 36.6°F2.6°C 82% 4.8 mph WSW7.7 kmh WSW 8.3 mph13.4 kmh 30.10 in1019.3 mb 0.00 in0.0 mm 0.00 in0.0 mm 0.00 in0.0 mm
06:48 AM 41.7°F5.4°C 36.6°F2.6°C 82% 4.9 mph WSW7.9 kmh WSW 8.3 mph13.4 kmh 30.10 in1019.3 mb 0.00 in0.0 mm 0.00 in0.0 mm 0.00 in0.0 mm
06:47 AM 41.7°F5.4°C 36.6°F2.6°C 82% 4.9 mph WSW7.9 kmh WSW 8.3 mph13.4 kmh 30.10 in1019.3 mb 0.00 in0.0 mm 0.00 in0.0 mm 0.00 in0.0 mm
06:46 AM 41.7°F5.4°C 36.6°F2.6°C 82% 5.1 mph WSW8.2 kmh WSW 8.3 mph13.4 kmh 30.11 in1019.6 mb 0.00 in0.0 mm 0.00 in0.0 mm 0.00 in0.0 mm
06:45 AM 41.7°F5.4°C 36.6°F2.6°C 82% 5.4 mph WSW8.7 kmh WSW 8.3 mph13.4 kmh 30.11 in1019.6 mb 0.00 in0.0 mm 0.00 in0.0 mm 0.00 in0.0 mm
06:44 AM 41.7°F5.4°C 36.3°F2.4°C 81% 5.5 mph SW8.9 kmh SW 8.3 mph13.4 kmh 30.11 in1019.6 mb 0.00 in0.0 mm 0.00 in0.0 mm 0.00 in0.0 mm
06:43 AM 41.7°F5.4°C 36.3°F2.4°C 81% 5.3 mph SW8.5 kmh SW 6.9 mph11.1 kmh 30.10 in1019.3 mb 0.00 in0.0 mm 0.00 in0.0 mm 0.00 in0.0 mm
06:42 AM 41.7°F5.4°C 36.3°F2.4°C 81% 5.4 mph SW8.7 kmh SW 7.6 mph12.2 kmh 30.10 in1019.3 mb 0.00 in0.0 mm 0.00 in0.0 mm 0.00 in0.0 mm
06:41 AM 41.7°F5.4°C 36.3°F2.4°C 81% 5.6 mph SW9.0 kmh SW 7.6 mph12.2 kmh 30.10 in1019.3 mb 0.00 in0.0 mm 0.00 in0.0 mm 0.00 in0.0 mm
06:40 AM 41.7°F5.4°C 36.3°F2.4°C 81% 5.6 mph SW9.0 kmh SW 7.6 mph12.2 kmh 30.10 in1019.3 mb 0.00 in0.0 mm 0.00 in0.0 mm 0.00 in0.0 mm
06:39 AM 41.7°F5.4°C 36.3°F2.4°C 81% 5.4 mph WSW8.7 kmh WSW 7.6 mph12.2 kmh 30.10 in1019.3 mb 0.00 in0.0 mm 0.00 in0.0 mm 0.00 in0.0 mm
06:38 AM 41.7°F5.4°C 36.3°F2.4°C 81% 5.6 mph WSW9.0 kmh WSW 9.2 mph14.8 kmh 30.10 in1019.3 mb 0.00 in0.0 mm 0.00 in0.0 mm 0.00 in0.0 mm
06:37 AM 41.7°F5.4°C 36.3°F2.4°C 81% 5.8 mph WSW9.3 kmh WSW 9.2 mph14.8 kmh 30.10 in1019.3 mb 0.00 in0.0 mm 0.00 in0.0 mm 0.00 in0.0 mm
06:36 AM 41.7°F5.4°C 36.3°F2.4°C 81% 5.8 mph W9.3 kmh W 9.2 mph14.8 kmh 30.10 in1019.3 mb 0.00 in0.0 mm 0.00 in0.0 mm 0.00 in0.0 mm
06:35 AM 41.7°F5.4°C 36.3°F2.4°C 81% 5.8 mph WSW9.3 kmh WSW 9.2 mph14.8 kmh 30.10 in1019.3 mb 0.00 in0.0 mm 0.00 in0.0 mm 0.00 in0.0 mm
06:34 AM 41.7°F5.4°C 36.3°F2.4°C 81% 5.9 mph W9.5 kmh W 9.2 mph14.8 kmh 30.10 in1019.3 mb 0.00 in0.0 mm 0.00 in0.0 mm 0.00 in0.0 mm
06:33 AM 41.7°F5.4°C 36.3°F2.4°C 81% 6.0 mph W9.7 kmh W 9.2 mph14.8 kmh 30.10 in1019.3 mb 0.00 in0.0 mm 0.00 in0.0 mm 0.00 in0.0 mm
06:32 AM 41.7°F5.4°C 36.3°F2.4°C 81% 6.1 mph W9.8 kmh W 9.2 mph14.8 kmh 30.10 in1019.3 mb 0.00 in0.0 mm 0.00 in0.0 mm 0.00 in0.0 mm
06:31 AM 41.7°F5.4°C 36.3°F2.4°C 81% 5.9 mph W9.5 kmh W 9.2 mph14.8 kmh 30.10 in1019.3 mb 0.00 in0.0 mm 0.00 in0.0 mm 0.00 in0.0 mm
06:30 AM 41.7°F5.4°C 36.3°F2.4°C 81% 5.9 mph W9.5 kmh W 9.2 mph14.8 kmh 30.10 in1019.3 mb 0.00 in0.0 mm 0.00 in0.0 mm 0.00 in0.0 mm
06:29 AM 41.7°F5.4°C 36.3°F2.4°C 81% 6.0 mph W9.7 kmh W 9.2 mph14.8 kmh 30.10 in1019.3 mb 0.00 in0.0 mm 0.00 in0.0 mm 0.00 in0.0 mm
06:28 AM 41.7°F5.4°C 36.3°F2.4°C 81% 6.1 mph WSW9.8 kmh WSW 9.8 mph15.8 kmh 30.10 in1019.3 mb 0.00 in0.0 mm 0.00 in0.0 mm 0.00 in0.0 mm
06:27 AM 41.7°F5.4°C 36.3°F2.4°C 81% 6.2 mph WSW10.0 kmh WSW 9.8 mph15.8 kmh 30.10 in1019.3 mb 0.00 in0.0 mm 0.00 in0.0 mm 0.00 in0.0 mm
06:26 AM 41.7°F5.4°C 36.3°F2.4°C 81% 6.2 mph WSW10.0 kmh WSW 9.8 mph15.8 kmh 30.10 in1019.3 mb 0.00 in0.0 mm 0.00 in0.0 mm 0.00 in0.0 mm
06:25 AM 41.7°F5.4°C 36.3°F2.4°C 81% 6.5 mph WSW10.5 kmh WSW 9.8 mph15.8 kmh 30.10 in1019.3 mb 0.00 in0.0 mm 0.00 in0.0 mm 0.00 in0.0 mm
06:24 AM 41.7°F5.4°C 36.3°F2.4°C 81% 6.5 mph WSW10.5 kmh WSW 9.8 mph15.8 kmh 30.10 in1019.3 mb 0.00 in0.0 mm 0.00 in0.0 mm 0.00 in0.0 mm
06:23 AM 41.7°F5.4°C 36.3°F2.4°C 81% 6.6 mph WSW10.6 kmh WSW 9.8 mph15.8 kmh 30.10 in1019.3 mb 0.00 in0.0 mm 0.00 in0.0 mm 0.00 in0.0 mm
06:22 AM 41.7°F5.4°C 36.3°F2.4°C 81% 6.5 mph WSW10.5 kmh WSW 9.8 mph15.8 kmh 30.10 in1019.3 mb 0.00 in0.0 mm 0.00 in0.0 mm 0.00 in0.0 mm
06:21 AM 41.7°F5.4°C 36.3°F2.4°C 81% 6.6 mph W10.6 kmh W 9.8 mph15.8 kmh 30.10 in1019.3 mb 0.00 in0.0 mm 0.00 in0.0 mm 0.00 in0.0 mm
06:20 AM 41.7°F5.4°C 36.3°F2.4°C 81% 6.8 mph W10.9 kmh W 9.8 mph15.8 kmh 30.10 in1019.3 mb 0.00 in0.0 mm 0.00 in0.0 mm 0.00 in0.0 mm
06:19 AM 41.7°F5.4°C 36.3°F2.4°C 81% 6.9 mph WNW11.1 kmh WNW 9.8 mph15.8 kmh 30.10 in1019.3 mb 0.00 in0.0 mm 0.00 in0.0 mm 0.00 in0.0 mm
06:18 AM 41.7°F5.4°C 36.3°F2.4°C 81% 6.8 mph WNW10.9 kmh WNW 9.8 mph15.8 kmh 30.10 in1019.3 mb 0.00 in0.0 mm 0.00 in0.0 mm 0.00 in0.0 mm
06:17 AM 41.7°F5.4°C 36.3°F2.4°C 81% 6.9 mph WNW11.1 kmh WNW 10.7 mph17.2 kmh 30.10 in1019.3 mb 0.00 in0.0 mm 0.00 in0.0 mm 0.00 in0.0 mm
06:16 AM 41.7°F5.4°C 36.3°F2.4°C 81% 6.7 mph W10.8 kmh W 10.7 mph17.2 kmh 30.10 in1019.3 mb 0.00 in0.0 mm 0.00 in0.0 mm 0.00 in0.0 mm
06:15 AM 41.7°F5.4°C 36.3°F2.4°C 81% 6.3 mph W10.1 kmh W 10.7 mph17.2 kmh 30.10 in1019.3 mb 0.00 in0.0 mm 0.00 in0.0 mm 0.00 in0.0 mm
06:14 AM 41.7°F5.4°C 36.3°F2.4°C 81% 5.9 mph WSW9.5 kmh WSW 10.7 mph17.2 kmh 30.10 in1019.3 mb 0.00 in0.0 mm 0.00 in0.0 mm 0.00 in0.0 mm
06:13 AM 41.7°F5.4°C 36.3°F2.4°C 81% 5.4 mph WSW8.7 kmh WSW 10.7 mph17.2 kmh 30.10 in1019.3 mb 0.00 in0.0 mm 0.00 in0.0 mm 0.00 in0.0 mm
06:12 AM 41.7°F5.4°C 36.3°F2.4°C 81% 5.1 mph WSW8.2 kmh WSW 10.7 mph17.2 kmh 30.10 in1019.3 mb 0.00 in0.0 mm 0.00 in0.0 mm 0.00 in0.0 mm
06:11 AM 41.7°F5.4°C 36.3°F2.4°C 81% 4.8 mph WSW7.7 kmh WSW 10.7 mph17.2 kmh 30.10 in1019.3 mb 0.00 in0.0 mm 0.00 in0.0 mm 0.00 in0.0 mm
06:10 AM 41.7°F5.4°C 36.3°F2.4°C 81% 4.5 mph SW7.2 kmh SW 10.7 mph17.2 kmh 30.10 in1019.3 mb 0.00 in0.0 mm 0.00 in0.0 mm 0.00 in0.0 mm
06:09 AM 41.7°F5.4°C 36.3°F2.4°C 81% 4.3 mph SW6.9 kmh SW 10.7 mph17.2 kmh 30.10 in1019.3 mb 0.00 in0.0 mm 0.00 in0.0 mm 0.00 in0.0 mm
06:08 AM 41.7°F5.4°C 36.3°F2.4°C 81% 4.1 mph SW6.6 kmh SW 10.7 mph17.2 kmh 30.10 in1019.3 mb 0.00 in0.0 mm 0.00 in0.0 mm 0.00 in0.0 mm
06:07 AM 41.9°F5.5°C 36.8°F2.7°C 82% 3.6 mph SW5.8 kmh SW 6.9 mph11.1 kmh 30.10 in1019.3 mb 0.00 in0.0 mm 0.00 in0.0 mm 0.00 in0.0 mm
06:06 AM 41.9°F5.5°C 36.8°F2.7°C 82% 3.8 mph WSW6.1 kmh WSW 6.9 mph11.1 kmh 30.09 in1019.0 mb 0.00 in0.0 mm 0.00 in0.0 mm 0.00 in0.0 mm
06:05 AM 41.9°F5.5°C 36.8°F2.7°C 82% 4.0 mph WSW6.4 kmh WSW 6.9 mph11.1 kmh 30.09 in1019.0 mb 0.00 in0.0 mm 0.00 in0.0 mm 0.00 in0.0 mm
06:04 AM 41.9°F5.5°C 36.8°F2.7°C 82% 4.3 mph WSW6.9 kmh WSW 7.6 mph12.2 kmh 30.09 in1019.0 mb 0.00 in0.0 mm 0.00 in0.0 mm 0.00 in0.0 mm
06:03 AM 41.9°F5.5°C 36.8°F2.7°C 82% 4.7 mph W7.6 kmh W 7.6 mph12.2 kmh 30.09 in1019.0 mb 0.00 in0.0 mm 0.00 in0.0 mm 0.00 in0.0 mm
06:02 AM 41.9°F5.5°C 36.8°F2.7°C 82% 5.1 mph W8.2 kmh W 7.6 mph12.2 kmh 30.09 in1019.0 mb 0.00 in0.0 mm 0.00 in0.0 mm 0.00 in0.0 mm
06:01 AM 41.9°F5.5°C 36.8°F2.7°C 82% 5.4 mph W8.7 kmh W 7.6 mph12.2 kmh 30.09 in1019.0 mb 0.00 in0.0 mm 0.00 in0.0 mm 0.00 in0.0 mm
06:00 AM 41.9°F5.5°C 36.8°F2.7°C 82% 5.9 mph W9.5 kmh W 9.8 mph15.8 kmh 30.09 in1019.0 mb 0.00 in0.0 mm 0.00 in0.0 mm 0.00 in0.0 mm
05:59 AM 41.9°F5.5°C 36.8°F2.7°C 82% 6.0 mph WNW9.7 kmh WNW 9.8 mph15.8 kmh 30.09 in1019.0 mb 0.00 in0.0 mm 0.00 in0.0 mm 0.00 in0.0 mm
05:58 AM 41.9°F5.5°C 36.8°F2.7°C 82% 5.9 mph WNW9.5 kmh WNW 9.8 mph15.8 kmh 30.09 in1019.0 mb 0.00 in0.0 mm 0.00 in0.0 mm 0.00 in0.0 mm
05:57 AM 41.9°F5.5°C 36.8°F2.7°C 82% 6.3 mph WNW10.1 kmh WNW 9.8 mph15.8 kmh 30.09 in1019.0 mb 0.00 in0.0 mm 0.00 in0.0 mm 0.00 in0.0 mm
05:56 AM 41.9°F5.5°C 36.8°F2.7°C 82% 6.7 mph WNW10.8 kmh WNW 10.7 mph17.2 kmh 30.09 in1019.0 mb 0.00 in0.0 mm 0.00 in0.0 mm 0.00 in0.0 mm
05:55 AM 41.9°F5.5°C 36.8°F2.7°C 82% 7.0 mph W11.3 kmh W 10.7 mph17.2 kmh 30.09 in1019.0 mb 0.00 in0.0 mm 0.00 in0.0 mm 0.00 in0.0 mm
05:54 AM 41.9°F5.5°C 36.8°F2.7°C 82% 7.0 mph W11.3 kmh W 10.7 mph17.2 kmh 30.09 in1019.0 mb 0.00 in0.0 mm 0.00 in0.0 mm 0.00 in0.0 mm
05:53 AM 41.9°F5.5°C 36.8°F2.7°C 82% 7.1 mph WSW11.4 kmh WSW 10.7 mph17.2 kmh 30.09 in1019.0 mb 0.00 in0.0 mm 0.00 in0.0 mm 0.00 in0.0 mm
05:52 AM 41.9°F5.5°C 36.8°F2.7°C 82% 7.0 mph WSW11.3 kmh WSW 10.7 mph17.2 kmh 30.09 in1019.0 mb 0.00 in0.0 mm 0.00 in0.0 mm 0.00 in0.0 mm
05:51 AM 41.9°F5.5°C 36.8°F2.7°C 82% 7.0 mph WSW11.3 kmh WSW 10.7 mph17.2 kmh 30.09 in1019.0 mb 0.00 in0.0 mm 0.00 in0.0 mm 0.00 in0.0 mm
05:50 AM 41.9°F5.5°C 36.8°F2.7°C 82% 6.7 mph WSW10.8 kmh WSW 10.7 mph17.2 kmh 30.09 in1019.0 mb 0.00 in0.0 mm 0.00 in0.0 mm 0.00 in0.0 mm
05:49 AM 41.9°F5.5°C 36.8°F2.7°C 82% 6.8 mph SW10.9 kmh SW 10.7 mph17.2 kmh 30.09 in1019.0 mb 0.00 in0.0 mm 0.00 in0.0 mm 0.00 in0.0 mm
05:48 AM 41.9°F5.5°C 36.8°F2.7°C 82% 6.7 mph SW10.8 kmh SW 10.7 mph17.2 kmh 30.09 in1019.0 mb 0.00 in0.0 mm 0.00 in0.0 mm 0.00 in0.0 mm
05:47 AM 41.9°F5.5°C 36.8°F2.7°C 82% 6.4 mph SW10.3 kmh SW 10.7 mph17.2 kmh 30.09 in1019.0 mb 0.00 in0.0 mm 0.00 in0.0 mm 0.00 in0.0 mm
05:46 AM 41.9°F5.5°C 36.8°F2.7°C 82% 6.1 mph SW9.8 kmh SW 10.7 mph17.2 kmh 30.09 in1019.0 mb 0.00 in0.0 mm 0.00 in0.0 mm 0.00 in0.0 mm
05:45 AM 41.9°F5.5°C 36.8°F2.7°C 82% 6.1 mph SW9.8 kmh SW 9.2 mph14.8 kmh 30.09 in1019.0 mb 0.00 in0.0 mm 0.00 in0.0 mm 0.00 in0.0 mm
05:44 AM 41.9°F5.5°C 37.1°F2.8°C 83% 6.1 mph SW9.8 kmh SW 9.2 mph14.8 kmh 30.09 in1019.0 mb 0.00 in0.0 mm 0.00 in0.0 mm 0.00 in0.0 mm
05:43 AM 41.9°F5.5°C 37.1°F2.8°C 83% 5.7 mph SW9.2 kmh SW 8.3 mph13.4 kmh 30.09 in1019.0 mb 0.00 in0.0 mm 0.00 in0.0 mm 0.00 in0.0 mm
05:42 AM 41.9°F5.5°C 37.1°F2.8°C 83% 5.7 mph SW9.2 kmh SW 8.3 mph13.4 kmh 30.09 in1019.0 mb 0.00 in0.0 mm 0.00 in0.0 mm 0.00 in0.0 mm
05:41 AM 41.9°F5.5°C 37.1°F2.8°C 83% 5.5 mph SW8.9 kmh SW 8.3 mph13.4 kmh 30.09 in1019.0 mb 0.00 in0.0 mm 0.00 in0.0 mm 0.00 in0.0 mm
05:40 AM 41.9°F5.5°C 36.8°F2.7°C 82% 5.5 mph SW8.9 kmh SW 8.3 mph13.4 kmh 30.09 in1019.0 mb 0.00 in0.0 mm 0.00 in0.0 mm 0.00 in0.0 mm
05:39 AM 41.9°F5.5°C 36.8°F2.7°C 82% 5.4 mph WSW8.7 kmh WSW 8.3 mph13.4 kmh 30.09 in1019.0 mb 0.00 in0.0 mm 0.00 in0.0 mm 0.00 in0.0 mm
05:38 AM 41.9°F5.5°C 36.8°F2.7°C 82% 5.6 mph WSW9.0 kmh WSW 8.3 mph13.4 kmh 30.09 in1019.0 mb 0.00 in0.0 mm 0.00 in0.0 mm 0.00 in0.0 mm
05:37 AM 41.9°F5.5°C 36.8°F2.7°C 82% 5.9 mph WSW9.5 kmh WSW 8.3 mph13.4 kmh 30.09 in1019.0 mb 0.00 in0.0 mm 0.00 in0.0 mm 0.00 in0.0 mm
05:36 AM 41.9°F5.5°C 36.8°F2.7°C 82% 5.7 mph WSW9.2 kmh WSW 8.3 mph13.4 kmh 30.09 in1019.0 mb 0.00 in0.0 mm 0.00 in0.0 mm 0.00 in0.0 mm
05:35 AM 41.9°F5.5°C 36.8°F2.7°C 82% 5.5 mph W8.9 kmh W 7.6 mph12.2 kmh 30.09 in1019.0 mb 0.00 in0.0 mm 0.00 in0.0 mm 0.00 in0.0 mm
05:34 AM 41.9°F5.5°C 36.8°F2.7°C 82% 5.5 mph W8.9 kmh W 6.9 mph11.1 kmh 30.08 in1018.6 mb 0.00 in0.0 mm 0.00 in0.0 mm 0.00 in0.0 mm
05:33 AM 41.9°F5.5°C 36.8°F2.7°C 82% 5.5 mph WSW8.9 kmh WSW 6.9 mph11.1 kmh 30.09 in1019.0 mb 0.00 in0.0 mm 0.00 in0.0 mm 0.00 in0.0 mm
05:32 AM 41.9°F5.5°C 36.8°F2.7°C 82% 5.4 mph WSW8.7 kmh WSW 6.9 mph11.1 kmh 30.08 in1018.6 mb 0.00 in0.0 mm 0.00 in0.0 mm 0.00 in0.0 mm
05:31 AM 41.9°F5.5°C 36.8°F2.7°C 82% 5.8 mph WSW9.3 kmh WSW 7.6 mph12.2 kmh 30.09 in1019.0 mb 0.00 in0.0 mm 0.00 in0.0 mm 0.00 in0.0 mm
05:30 AM 41.9°F5.5°C 36.8°F2.7°C 82% 5.8 mph WSW9.3 kmh WSW 7.6 mph12.2 kmh 30.08 in1018.6 mb 0.00 in0.0 mm 0.00 in0.0 mm 0.00 in0.0 mm
05:29 AM 41.9°F5.5°C 36.8°F2.7°C 82% 5.7 mph WSW9.2 kmh WSW 7.6 mph12.2 kmh 30.08 in1018.6 mb 0.00 in0.0 mm 0.00 in0.0 mm 0.00 in0.0 mm
05:28 AM 41.9°F5.5°C 36.8°F2.7°C 82% 5.6 mph WSW9.0 kmh WSW 7.6 mph12.2 kmh 30.08 in1018.6 mb 0.00 in0.0 mm 0.00 in0.0 mm 0.00 in0.0 mm
05:27 AM 41.9°F5.5°C 36.8°F2.7°C 82% 5.8 mph WSW9.3 kmh WSW 9.2 mph14.8 kmh 30.09 in1019.0 mb 0.00 in0.0 mm 0.00 in0.0 mm 0.00 in0.0 mm
05:26 AM 41.9°F5.5°C 36.8°F2.7°C 82% 5.8 mph WSW9.3 kmh WSW 9.2 mph14.8 kmh 30.08 in1018.6 mb 0.00 in0.0 mm 0.00 in0.0 mm 0.00 in0.0 mm
05:25 AM 41.9°F5.5°C 36.8°F2.7°C 82% 5.6 mph WSW9.0 kmh WSW 9.2 mph14.8 kmh 30.08 in1018.6 mb 0.00 in0.0 mm 0.00 in0.0 mm 0.00 in0.0 mm
05:24 AM 41.9°F5.5°C 36.8°F2.7°C 82% 5.9 mph WSW9.5 kmh WSW 9.8 mph15.8 kmh 30.08 in1018.6 mb 0.00 in0.0 mm 0.00 in0.0 mm 0.00 in0.0 mm
05:23 AM 41.9°F5.5°C 36.8°F2.7°C 82% 6.3 mph WSW10.1 kmh WSW 9.8 mph15.8 kmh 30.09 in1019.0 mb 0.00 in0.0 mm 0.00 in0.0 mm 0.00 in0.0 mm
05:22 AM 41.9°F5.5°C 36.8°F2.7°C 82% 6.9 mph WSW11.1 kmh WSW 11.4 mph18.3 kmh 30.08 in1018.6 mb 0.00 in0.0 mm 0.00 in0.0 mm 0.00 in0.0 mm
05:21 AM 41.9°F5.5°C 36.8°F2.7°C 82% 7.0 mph SW11.3 kmh SW 11.4 mph18.3 kmh 30.08 in1018.6 mb 0.00 in0.0 mm 0.00 in0.0 mm 0.00 in0.0 mm
05:20 AM 41.9°F5.5°C 36.8°F2.7°C 82% 7.1 mph SW11.4 kmh SW 11.4 mph18.3 kmh 30.08 in1018.6 mb 0.00 in0.0 mm 0.00 in0.0 mm 0.00 in0.0 mm
05:19 AM 41.9°F5.5°C 36.8°F2.7°C 82% 7.5 mph SW12.1 kmh SW 11.4 mph18.3 kmh 30.08 in1018.6 mb 0.00 in0.0 mm 0.00 in0.0 mm 0.00 in0.0 mm
05:18 AM 41.9°F5.5°C 36.8°F2.7°C 82% 7.6 mph SW12.2 kmh SW 11.4 mph18.3 kmh 30.08 in1018.6 mb 0.00 in0.0 mm 0.00 in0.0 mm 0.00 in0.0 mm
05:17 AM 41.9°F5.5°C 36.8°F2.7°C 82% 7.2 mph SW11.6 kmh SW 11.4 mph18.3 kmh 30.08 in1018.6 mb 0.00 in0.0 mm 0.00 in0.0 mm 0.00 in0.0 mm
05:16 AM 41.9°F5.5°C 36.8°F2.7°C 82% 7.0 mph SW11.3 kmh SW 11.4 mph18.3 kmh 30.08 in1018.6 mb 0.00 in0.0 mm 0.00 in0.0 mm 0.00 in0.0 mm
05:15 AM 41.9°F5.5°C 36.8°F2.7°C 82% 7.1 mph SW11.4 kmh SW 11.4 mph18.3 kmh 30.08 in1018.6 mb 0.00 in0.0 mm 0.00 in0.0 mm 0.00 in0.0 mm
05:14 AM 41.9°F5.5°C 36.8°F2.7°C 82% 6.7 mph SW10.8 kmh SW 11.4 mph18.3 kmh 30.07 in1018.3 mb 0.00 in0.0 mm 0.00 in0.0 mm 0.00 in0.0 mm
05:13 AM 41.9°F5.5°C 36.8°F2.7°C 82% 6.2 mph SW10.0 kmh SW 11.4 mph18.3 kmh 30.08 in1018.6 mb 0.00 in0.0 mm 0.00 in0.0 mm 0.00 in0.0 mm
05:12 AM 41.9°F5.5°C 36.8°F2.7°C 82% 5.7 mph SW9.2 kmh SW 8.3 mph13.4 kmh 30.08 in1018.6 mb 0.00 in0.0 mm 0.00 in0.0 mm 0.00 in0.0 mm
05:11 AM 41.9°F5.5°C 36.8°F2.7°C 82% 5.4 mph SSW8.7 kmh SSW 8.3 mph13.4 kmh 30.08 in1018.6 mb 0.00 in0.0 mm 0.00 in0.0 mm 0.00 in0.0 mm
05:10 AM 41.7°F5.4°C 36.6°F2.6°C 82% 5.1 mph SSW8.2 kmh SSW 7.6 mph12.2 kmh 30.08 in1018.6 mb 0.00 in0.0 mm 0.00 in0.0 mm 0.00 in0.0 mm
05:09 AM 41.9°F5.5°C 36.8°F2.7°C 82% 4.7 mph SSW7.6 kmh SSW 6.9 mph11.1 kmh 30.08 in1018.6 mb 0.00 in0.0 mm 0.00 in0.0 mm 0.00 in0.0 mm
05:08 AM 41.9°F5.5°C 36.8°F2.7°C 82% 4.6 mph SSW7.4 kmh SSW 6.9 mph11.1 kmh 30.08 in1018.6 mb 0.00 in0.0 mm 0.00 in0.0 mm 0.00 in0.0 mm
05:07 AM 41.9°F5.5°C 36.8°F2.7°C 82% 4.8 mph SW7.7 kmh SW 7.6 mph12.2 kmh 30.08 in1018.6 mb 0.00 in0.0 mm 0.00 in0.0 mm 0.00 in0.0 mm
05:06 AM 41.9°F5.5°C 36.8°F2.7°C 82% 5.0 mph SW8.0 kmh SW 7.6 mph12.2 kmh 30.08 in1018.6 mb 0.00 in0.0 mm 0.00 in0.0 mm 0.00 in0.0 mm
05:05 AM 41.9°F5.5°C 36.8°F2.7°C 82% 5.2 mph SW8.4 kmh SW 7.6 mph12.2 kmh 30.08 in1018.6 mb 0.00 in0.0 mm 0.00 in0.0 mm 0.00 in0.0 mm
05:04 AM 41.9°F5.5°C 36.8°F2.7°C 82% 5.1 mph SW8.2 kmh SW 7.6 mph12.2 kmh 30.08 in1018.6 mb 0.00 in0.0 mm 0.00 in0.0 mm 0.00 in0.0 mm
05:03 AM 41.9°F5.5°C 36.8°F2.7°C 82% 5.2 mph SW8.4 kmh SW 7.6 mph12.2 kmh 30.08 in1018.6 mb 0.00 in0.0 mm 0.00 in0.0 mm 0.00 in0.0 mm
05:02 AM 41.9°F5.5°C 36.8°F2.7°C 82% 5.3 mph SW8.5 kmh SW 7.6 mph12.2 kmh 30.08 in1018.6 mb 0.00 in0.0 mm 0.00 in0.0 mm 0.00 in0.0 mm
05:01 AM 41.9°F5.5°C 36.8°F2.7°C 82% 5.0 mph SW8.0 kmh SW 7.6 mph12.2 kmh 30.08 in1018.6 mb 0.00 in0.0 mm 0.00 in0.0 mm 0.00 in0.0 mm
05:00 AM 41.9°F5.5°C 36.8°F2.7°C 82% 5.0 mph SW8.0 kmh SW 7.6 mph12.2 kmh 30.08 in1018.6 mb 0.00 in0.0 mm 0.00 in0.0 mm 0.00 in0.0 mm
04:59 AM 41.9°F5.5°C 36.8°F2.7°C 82% 5.3 mph SW8.5 kmh SW 7.6 mph12.2 kmh 30.08 in1018.6 mb 0.00 in0.0 mm 0.00 in0.0 mm 0.00 in0.0 mm
04:58 AM 41.9°F5.5°C 36.8°F2.7°C 82% 5.1 mph SW8.2 kmh SW 7.6 mph12.2 kmh 30.07 in1018.3 mb 0.00 in0.0 mm 0.00 in0.0 mm 0.00 in0.0 mm
04:57 AM 41.7°F5.4°C 36.6°F2.6°C 82% 4.8 mph WSW7.7 kmh WSW 7.6 mph12.2 kmh 30.08 in1018.6 mb 0.00 in0.0 mm 0.00 in0.0 mm 0.00 in0.0 mm
04:56 AM 41.7°F5.4°C 36.6°F2.6°C 82% 4.6 mph WSW7.4 kmh WSW 7.6 mph12.2 kmh 30.08 in1018.6 mb 0.00 in0.0 mm 0.00 in0.0 mm 0.00 in0.0 mm
04:55 AM 41.7°F5.4°C 36.3°F2.4°C 81% 4.3 mph SW6.9 kmh SW 7.6 mph12.2 kmh 30.07 in1018.3 mb 0.00 in0.0 mm 0.00 in0.0 mm 0.00 in0.0 mm
04:54 AM 41.7°F5.4°C 36.3°F2.4°C 81% 4.3 mph SW6.9 kmh SW 7.6 mph12.2 kmh 30.07 in1018.3 mb 0.00 in0.0 mm 0.00 in0.0 mm 0.00 in0.0 mm
04:53 AM 41.9°F5.5°C 36.5°F2.5°C 81% 4.1 mph WSW6.6 kmh WSW 7.6 mph12.2 kmh 30.08 in1018.6 mb 0.00 in0.0 mm 0.00 in0.0 mm 0.00 in0.0 mm
04:52 AM 41.9°F5.5°C 36.5°F2.5°C 81% 4.1 mph WSW6.6 kmh WSW 7.6 mph12.2 kmh 30.07 in1018.3 mb 0.00 in0.0 mm 0.00 in0.0 mm 0.00 in0.0 mm
04:51 AM 41.9°F5.5°C 36.5°F2.5°C 81% 4.3 mph WSW6.9 kmh WSW 7.6 mph12.2 kmh 30.07 in1018.3 mb 0.00 in0.0 mm 0.00 in0.0 mm 0.00 in0.0 mm
04:50 AM 41.9°F5.5°C 36.5°F2.5°C 81% 4.4 mph WSW7.1 kmh WSW 7.6 mph12.2 kmh 30.07 in1018.3 mb 0.00 in0.0 mm 0.00 in0.0 mm 0.00 in0.0 mm
04:49 AM 41.9°F5.5°C 36.5°F2.5°C 81% 4.3 mph SW6.9 kmh SW 6.0 mph9.7 kmh 30.07 in1018.3 mb 0.00 in0.0 mm 0.00 in0.0 mm 0.00 in0.0 mm
04:48 AM 41.9°F5.5°C 36.5°F2.5°C 81% 4.6 mph SW7.4 kmh SW 8.3 mph13.4 kmh 30.08 in1018.6 mb 0.00 in0.0 mm 0.00 in0.0 mm 0.00 in0.0 mm
04:47 AM 41.9°F5.5°C 36.5°F2.5°C 81% 5.0 mph SW8.0 kmh SW 8.3 mph13.4 kmh 30.07 in1018.3 mb 0.00 in0.0 mm 0.00 in0.0 mm 0.00 in0.0 mm
04:46 AM 41.9°F5.5°C 36.5°F2.5°C 81% 5.4 mph SW8.7 kmh SW 9.2 mph14.8 kmh 30.07 in1018.3 mb 0.00 in0.0 mm 0.00 in0.0 mm 0.00 in0.0 mm
04:45 AM 42.1°F5.6°C 36.7°F2.6°C 81% 5.7 mph SW9.2 kmh SW 9.2 mph14.8 kmh 30.08 in1018.6 mb 0.00 in0.0 mm 0.00 in0.0 mm 0.00 in0.0 mm
04:44 AM 42.1°F5.6°C 36.7°F2.6°C 81% 5.9 mph SW9.5 kmh SW 9.2 mph14.8 kmh 30.07 in1018.3 mb 0.00 in0.0 mm 0.00 in0.0 mm 0.00 in0.0 mm
04:43 AM 42.1°F5.6°C 36.7°F2.6°C 81% 6.1 mph SW9.8 kmh SW 9.2 mph14.8 kmh 30.07 in1018.3 mb 0.00 in0.0 mm 0.00 in0.0 mm 0.00 in0.0 mm
04:42 AM 42.1°F5.6°C 36.7°F2.6°C 81% 6.3 mph SW10.1 kmh SW 9.2 mph14.8 kmh 30.07 in1018.3 mb 0.00 in0.0 mm 0.00 in0.0 mm 0.00 in0.0 mm
04:41 AM 42.1°F5.6°C 36.7°F2.6°C 81% 6.5 mph SW10.5 kmh SW 9.2 mph14.8 kmh 30.08 in1018.6 mb 0.00 in0.0 mm 0.00 in0.0 mm 0.00 in0.0 mm
04:40 AM 42.1°F5.6°C 36.7°F2.6°C 81% 6.9 mph SW11.1 kmh SW 9.2 mph14.8 kmh 30.08 in1018.6 mb 0.00 in0.0 mm 0.00 in0.0 mm 0.00 in0.0 mm
04:39 AM 42.1°F5.6°C 36.7°F2.6°C 81% 6.8 mph SW10.9 kmh SW 9.2 mph14.8 kmh 30.08 in1018.6 mb 0.00 in0.0 mm 0.00 in0.0 mm 0.00 in0.0 mm
04:38 AM 42.1°F5.6°C 36.7°F2.6°C 81% 6.8 mph SW10.9 kmh SW 9.2 mph14.8 kmh 30.07 in1018.3 mb 0.00 in0.0 mm 0.00 in0.0 mm 0.00 in0.0 mm
04:37 AM 42.1°F5.6°C 36.7°F2.6°C 81% 6.6 mph SW10.6 kmh SW 9.2 mph14.8 kmh 30.07 in1018.3 mb 0.00 in0.0 mm 0.00 in0.0 mm 0.00 in0.0 mm
04:36 AM 42.1°F5.6°C 36.7°F2.6°C 81% 6.7 mph SW10.8 kmh SW 10.7 mph17.2 kmh 30.07 in1018.3 mb 0.00 in0.0 mm 0.00 in0.0 mm 0.00 in0.0 mm
04:35 AM 42.1°F5.6°C 36.7°F2.6°C 81% 7.0 mph SW11.3 kmh SW 10.7 mph17.2 kmh 30.07 in1018.3 mb 0.00 in0.0 mm 0.00 in0.0 mm 0.00 in0.0 mm
04:34 AM 42.1°F5.6°C 36.7°F2.6°C 81% 6.8 mph SW10.9 kmh SW 10.7 mph17.2 kmh 30.07 in1018.3 mb 0.00 in0.0 mm 0.00 in0.0 mm 0.00 in0.0 mm
04:33 AM 42.1°F5.6°C 36.7°F2.6°C 81% 6.6 mph SW10.6 kmh SW 10.7 mph17.2 kmh 30.07 in1018.3 mb 0.00 in0.0 mm 0.00 in0.0 mm 0.00 in0.0 mm
04:32 AM 42.1°F5.6°C 36.7°F2.6°C 81% 6.6 mph SW10.6 kmh SW 10.7 mph17.2 kmh 30.07 in1018.3 mb 0.00 in0.0 mm 0.00 in0.0 mm 0.00 in0.0 mm
04:31 AM 42.1°F5.6°C 36.7°F2.6°C 81% 6.6 mph SW10.6 kmh SW 10.7 mph17.2 kmh 30.07 in1018.3 mb 0.00 in0.0 mm 0.00 in0.0 mm 0.00 in0.0 mm
04:30 AM 42.1°F5.6°C 36.7°F2.6°C 81% 6.2 mph SW10.0 kmh SW 10.7 mph17.2 kmh 30.07 in1018.3 mb 0.00 in0.0 mm 0.00 in0.0 mm 0.00 in0.0 mm
04:29 AM 42.1°F5.6°C 36.7°F2.6°C 81% 6.0 mph SW9.7 kmh SW 10.7 mph17.2 kmh 30.07 in1018.3 mb 0.00 in0.0 mm 0.00 in0.0 mm 0.00 in0.0 mm
04:28 AM 42.1°F5.6°C 36.7°F2.6°C 81% 5.9 mph SW9.5 kmh SW 10.7 mph17.2 kmh 30.07 in1018.3 mb 0.00 in0.0 mm 0.00 in0.0 mm 0.00 in0.0 mm
04:27 AM 42.1°F5.6°C 36.7°F2.6°C 81% 5.6 mph SW9.0 kmh SW 10.7 mph17.2 kmh 30.08 in1018.6 mb 0.00 in0.0 mm 0.00 in0.0 mm 0.00 in0.0 mm
04:26 AM 42.1°F5.6°C 36.7°F2.6°C 81% 5.1 mph SW8.2 kmh SW 10.7 mph17.2 kmh 30.07 in1018.3 mb 0.00 in0.0 mm 0.00 in0.0 mm 0.00 in0.0 mm
04:25 AM 42.1°F5.6°C 36.7°F2.6°C 81% 4.7 mph SSW7.6 kmh SSW 6.9 mph11.1 kmh 30.08 in1018.6 mb 0.00 in0.0 mm 0.00 in0.0 mm 0.00 in0.0 mm
04:24 AM 42.1°F5.6°C 36.7°F2.6°C 81% 4.9 mph SSW7.9 kmh SSW 8.3 mph13.4 kmh 30.07 in1018.3 mb 0.00 in0.0 mm 0.00 in0.0 mm 0.00 in0.0 mm
04:23 AM 42.1°F5.6°C 36.7°F2.6°C 81% 5.0 mph SW8.0 kmh SW 8.3 mph13.4 kmh 30.08 in1018.6 mb 0.00 in0.0 mm 0.00 in0.0 mm 0.00 in0.0 mm
04:22 AM 42.1°F5.6°C 36.7°F2.6°C 81% 4.9 mph SW7.9 kmh SW 8.3 mph13.4 kmh 30.08 in1018.6 mb 0.00 in0.0 mm 0.00 in0.0 mm 0.00 in0.0 mm
04:21 AM 42.1°F5.6°C 36.7°F2.6°C 81% 4.7 mph SW7.6 kmh SW 8.3 mph13.4 kmh 30.08 in1018.6 mb 0.00 in0.0 mm 0.00 in0.0 mm 0.00 in0.0 mm
04:20 AM 42.1°F5.6°C 36.7°F2.6°C 81% 5.0 mph SW8.0 kmh SW 8.3 mph13.4 kmh 30.08 in1018.6 mb 0.00 in0.0 mm 0.00 in0.0 mm 0.00 in0.0 mm
04:19 AM 42.1°F5.6°C 36.7°F2.6°C 81% 5.1 mph SW8.2 kmh SW 8.3 mph13.4 kmh 30.08 in1018.6 mb 0.00 in0.0 mm 0.00 in0.0 mm 0.00 in0.0 mm
04:18 AM 42.1°F5.6°C 36.7°F2.6°C 81% 5.0 mph SW8.0 kmh SW 8.3 mph13.4 kmh 30.07 in1018.3 mb 0.00 in0.0 mm 0.00 in0.0 mm 0.00 in0.0 mm
04:17 AM 42.1°F5.6°C 36.7°F2.6°C 81% 5.1 mph SW8.2 kmh SW 8.3 mph13.4 kmh 30.07 in1018.3 mb 0.00 in0.0 mm 0.00 in0.0 mm 0.00 in0.0 mm
04:16 AM 42.1°F5.6°C 36.7°F2.6°C 81% 5.4 mph SW8.7 kmh SW 8.3 mph13.4 kmh 30.08 in1018.6 mb 0.00 in0.0 mm 0.00 in0.0 mm 0.00 in0.0 mm
04:15 AM 42.1°F5.6°C 36.7°F2.6°C 81% 5.7 mph SW9.2 kmh SW 8.3 mph13.4 kmh 30.08 in1018.6 mb 0.00 in0.0 mm 0.00 in0.0 mm 0.00 in0.0 mm
04:14 AM 42.1°F5.6°C 36.7°F2.6°C 81% 5.8 mph SW9.3 kmh SW 8.3 mph13.4 kmh 30.07 in1018.3 mb 0.00 in0.0 mm 0.00 in0.0 mm 0.00 in0.0 mm
04:13 AM 42.1°F5.6°C 36.7°F2.6°C 81% 6.1 mph SW9.8 kmh SW 7.6 mph12.2 kmh 30.07 in1018.3 mb 0.00 in0.0 mm 0.00 in0.0 mm 0.00 in0.0 mm
04:12 AM 42.3°F5.7°C 36.9°F2.7°C 81% 6.4 mph SW10.3 kmh SW 7.6 mph12.2 kmh 30.07 in1018.3 mb 0.00 in0.0 mm 0.00 in0.0 mm 0.00 in0.0 mm
04:11 AM 42.3°F5.7°C 36.5°F2.5°C 80% 6.7 mph SW10.8 kmh SW 7.6 mph12.2 kmh 30.08 in1018.6 mb 0.00 in0.0 mm 0.00 in0.0 mm 0.00 in0.0 mm
04:10 AM 42.3°F5.7°C 36.5°F2.5°C 80% 6.7 mph SW10.8 kmh SW 7.6 mph12.2 kmh 30.07 in1018.3 mb 0.00 in0.0 mm 0.00 in0.0 mm 0.00 in0.0 mm
04:09 AM 42.3°F5.7°C 36.5°F2.5°C 80% 6.8 mph SW10.9 kmh SW 7.6 mph12.2 kmh 30.07 in1018.3 mb 0.00 in0.0 mm 0.00 in0.0 mm 0.00 in0.0 mm
04:08 AM 42.3°F5.7°C 36.5°F2.5°C 80% 6.9 mph SW11.1 kmh SW 7.6 mph12.2 kmh 30.08 in1018.6 mb 0.00 in0.0 mm 0.00 in0.0 mm 0.00 in0.0 mm
04:07 AM 42.3°F5.7°C 36.5°F2.5°C 80% 6.9 mph SW11.1 kmh SW 7.6 mph12.2 kmh 30.08 in1018.6 mb 0.00 in0.0 mm 0.00 in0.0 mm 0.00 in0.0 mm
04:06 AM 42.3°F5.7°C 36.5°F2.5°C 80% 6.5 mph SW10.5 kmh SW 7.6 mph12.2 kmh 30.08 in1018.6 mb 0.00 in0.0 mm 0.00 in0.0 mm 0.00 in0.0 mm
04:05 AM 42.3°F5.7°C 36.5°F2.5°C 80% 6.2 mph SW10.0 kmh SW 7.6 mph12.2 kmh 30.07 in1018.3 mb 0.00 in0.0 mm 0.00 in0.0 mm 0.00 in0.0 mm
04:04 AM 42.3°F5.7°C 36.5°F2.5°C 80% 6.0 mph SW9.7 kmh SW 7.6 mph12.2 kmh 30.08 in1018.6 mb 0.00 in0.0 mm 0.00 in0.0 mm 0.00 in0.0 mm
04:03 AM 42.3°F5.7°C 36.5°F2.5°C 80% 5.6 mph SW9.0 kmh SW 7.6 mph12.2 kmh 30.08 in1018.6 mb 0.00 in0.0 mm 0.00 in0.0 mm 0.00 in0.0 mm
04:02 AM 42.3°F5.7°C 36.5°F2.5°C 80% 5.6 mph SW9.0 kmh SW 12.1 mph19.5 kmh 30.08 in1018.6 mb 0.00 in0.0 mm 0.00 in0.0 mm 0.00 in0.0 mm
04:01 AM 42.3°F5.7°C 36.5°F2.5°C 80% 6.1 mph SW9.8 kmh SW 13.0 mph20.9 kmh 30.07 in1018.3 mb 0.00 in0.0 mm 0.00 in0.0 mm 0.00 in0.0 mm
04:00 AM 42.3°F5.7°C 36.5°F2.5°C 80% 5.9 mph WSW9.5 kmh WSW 13.0 mph20.9 kmh 30.08 in1018.6 mb 0.00 in0.0 mm 0.00 in0.0 mm 0.00 in0.0 mm
03:59 AM 42.3°F5.7°C 36.5°F2.5°C 80% 5.8 mph SW9.3 kmh SW 13.0 mph20.9 kmh 30.07 in1018.3 mb 0.00 in0.0 mm 0.00 in0.0 mm 0.00 in0.0 mm
03:58 AM 42.4°F5.8°C 37.0°F2.8°C 81% 5.9 mph SW9.5 kmh SW 13.0 mph20.9 kmh 30.07 in1018.3 mb 0.00 in0.0 mm 0.00 in0.0 mm 0.00 in0.0 mm
03:57 AM 42.4°F5.8°C 37.0°F2.8°C 81% 5.9 mph SW9.5 kmh SW 13.0 mph20.9 kmh 30.07 in1018.3 mb 0.00 in0.0 mm 0.00 in0.0 mm 0.00 in0.0 mm
03:56 AM 42.3°F5.7°C 36.9°F2.7°C 81% 6.2 mph SW10.0 kmh SW 13.0 mph20.9 kmh 30.07 in1018.3 mb 0.00 in0.0 mm 0.00 in0.0 mm 0.00 in0.0 mm
03:55 AM 42.4°F5.8°C 37.0°F2.8°C 81% 6.2 mph SW10.0 kmh SW 13.0 mph20.9 kmh 30.07 in1018.3 mb 0.00 in0.0 mm 0.00 in0.0 mm 0.00 in0.0 mm
03:54 AM 42.4°F5.8°C 37.0°F2.8°C 81% 6.0 mph SW9.7 kmh SW 13.0 mph20.9 kmh 30.07 in1018.3 mb 0.00 in0.0 mm 0.00 in0.0 mm 0.00 in0.0 mm
03:53 AM 42.3°F5.7°C 36.9°F2.7°C 81% 6.1 mph SW9.8 kmh SW 13.0 mph20.9 kmh 30.07 in1018.3 mb 0.00 in0.0 mm 0.00 in0.0 mm 0.00 in0.0 mm
03:52 AM 42.3°F5.7°C 36.9°F2.7°C 81% 5.6 mph SW9.0 kmh SW 13.0 mph20.9 kmh 30.08 in1018.6 mb 0.00 in0.0 mm 0.00 in0.0 mm 0.00 in0.0 mm
03:51 AM 42.3°F5.7°C 36.9°F2.7°C 81% 4.9 mph SW7.9 kmh SW 13.0 mph20.9 kmh 30.08 in1018.6 mb 0.00 in0.0 mm 0.00 in0.0 mm 0.00 in0.0 mm
03:50 AM 42.3°F5.7°C 36.9°F2.7°C 81% 4.9 mph SW7.9 kmh SW 7.6 mph12.2 kmh 30.08 in1018.6 mb 0.00 in0.0 mm 0.00 in0.0 mm 0.00 in0.0 mm
03:49 AM 42.3°F5.7°C 36.9°F2.7°C 81% 5.1 mph SW8.2 kmh SW 7.6 mph12.2 kmh 30.08 in1018.6 mb 0.00 in0.0 mm 0.00 in0.0 mm 0.00 in0.0 mm
03:48 AM 42.3°F5.7°C 36.9°F2.7°C 81% 5.3 mph SW8.5 kmh SW 7.6 mph12.2 kmh 30.07 in1018.3 mb 0.00 in0.0 mm 0.00 in0.0 mm 0.00 in0.0 mm
03:47 AM 42.3°F5.7°C 36.9°F2.7°C 81% 5.5 mph SW8.9 kmh SW 7.6 mph12.2 kmh 30.08 in1018.6 mb 0.00 in0.0 mm 0.00 in0.0 mm 0.00 in0.0 mm
03:46 AM 42.3°F5.7°C 36.9°F2.7°C 81% 5.2 mph SW8.4 kmh SW 7.6 mph12.2 kmh 30.07 in1018.3 mb 0.00 in0.0 mm 0.00 in0.0 mm 0.00 in0.0 mm
03:45 AM 42.4°F5.8°C 37.0°F2.8°C 81% 5.3 mph SW8.5 kmh SW 7.6 mph12.2 kmh 30.07 in1018.3 mb 0.00 in0.0 mm 0.00 in0.0 mm 0.00 in0.0 mm
03:44 AM 42.4°F5.8°C 37.0°F2.8°C 81% 5.4 mph SSW8.7 kmh SSW 7.6 mph12.2 kmh 30.07 in1018.3 mb 0.00 in0.0 mm 0.00 in0.0 mm 0.00 in0.0 mm
03:43 AM 42.4°F5.8°C 37.0°F2.8°C 81% 5.6 mph SW9.0 kmh SW 7.6 mph12.2 kmh 30.07 in1018.3 mb 0.00 in0.0 mm 0.00 in0.0 mm 0.00 in0.0 mm
03:42 AM 42.4°F5.8°C 37.0°F2.8°C 81% 5.9 mph SSW9.5 kmh SSW 7.6 mph12.2 kmh 30.08 in1018.6 mb 0.00 in0.0 mm 0.00 in0.0 mm 0.00 in0.0 mm
03:41 AM 42.4°F5.8°C 37.0°F2.8°C 81% 5.8 mph SW9.3 kmh SW 7.6 mph12.2 kmh 30.07 in1018.3 mb 0.00 in0.0 mm 0.00 in0.0 mm 0.00 in0.0 mm
03:40 AM 42.3°F5.7°C 36.9°F2.7°C 81% 5.7 mph SW9.2 kmh SW 7.6 mph12.2 kmh 30.08 in1018.6 mb 0.00 in0.0 mm 0.00 in0.0 mm 0.00 in0.0 mm
03:39 AM 42.3°F5.7°C 36.9°F2.7°C 81% 5.3 mph SW8.5 kmh SW 7.6 mph12.2 kmh 30.07 in1018.3 mb 0.00 in0.0 mm 0.00 in0.0 mm 0.00 in0.0 mm
03:38 AM 42.3°F5.7°C 36.9°F2.7°C 81% 5.1 mph SW8.2 kmh SW 7.6 mph12.2 kmh 30.08 in1018.6 mb 0.00 in0.0 mm 0.00 in0.0 mm 0.00 in0.0 mm
03:37 AM 42.3°F5.7°C 36.9°F2.7°C 81% 4.8 mph SSW7.7 kmh SSW 7.6 mph12.2 kmh 30.07 in1018.3 mb 0.00 in0.0 mm 0.00 in0.0 mm 0.00 in0.0 mm
03:36 AM 42.3°F5.7°C 36.9°F2.7°C 81% 5.1 mph SW8.2 kmh SW 7.6 mph12.2 kmh 30.07 in1018.3 mb 0.00 in0.0 mm 0.00 in0.0 mm 0.00 in0.0 mm
03:35 AM 42.3°F5.7°C 36.9°F2.7°C 81% 5.3 mph SSW8.5 kmh SSW 7.6 mph12.2 kmh 30.07 in1018.3 mb 0.00 in0.0 mm 0.00 in0.0 mm 0.00 in0.0 mm
03:34 AM 42.4°F5.8°C 37.0°F2.8°C 81% 5.4 mph SSW8.7 kmh SSW 7.6 mph12.2 kmh 30.07 in1018.3 mb 0.00 in0.0 mm 0.00 in0.0 mm 0.00 in0.0 mm
03:33 AM 42.3°F5.7°C 36.9°F2.7°C 81% 5.4 mph SSW8.7 kmh SSW 7.6 mph12.2 kmh 30.07 in1018.3 mb 0.00 in0.0 mm 0.00 in0.0 mm 0.00 in0.0 mm
03:32 AM 42.3°F5.7°C 36.9°F2.7°C 81% 5.1 mph SSW8.2 kmh SSW 7.6 mph12.2 kmh 30.07 in1018.3 mb 0.00 in0.0 mm 0.00 in0.0 mm 0.00 in0.0 mm
03:31 AM 42.4°F5.8°C 37.0°F2.8°C 81% 5.3 mph SW8.5 kmh SW 7.6 mph12.2 kmh 30.07 in1018.3 mb 0.00 in0.0 mm 0.00 in0.0 mm 0.00 in0.0 mm
03:30 AM 42.4°F5.8°C 37.0°F2.8°C 81% 5.7 mph SW9.2 kmh SW 9.2 mph14.8 kmh 30.07 in1018.3 mb 0.00 in0.0 mm 0.00 in0.0 mm 0.00 in0.0 mm
03:29 AM 42.4°F5.8°C 37.0°F2.8°C 81% 6.0 mph SW9.7 kmh SW 9.2 mph14.8 kmh 30.07 in1018.3 mb 0.00 in0.0 mm 0.00 in0.0 mm 0.00 in0.0 mm
03:28 AM 42.4°F5.8°C 37.0°F2.8°C 81% 6.0 mph SW9.7 kmh SW 9.2 mph14.8 kmh 30.07 in1018.3 mb 0.00 in0.0 mm 0.00 in0.0 mm 0.00 in0.0 mm
03:27 AM 42.4°F5.8°C 37.0°F2.8°C 81% 5.9 mph SW9.5 kmh SW 9.2 mph14.8 kmh 30.07 in1018.3 mb 0.00 in0.0 mm 0.00 in0.0 mm 0.00 in0.0 mm
03:26 AM 42.4°F5.8°C 37.0°F2.8°C 81% 5.9 mph SW9.5 kmh SW 9.2 mph14.8 kmh 30.07 in1018.3 mb 0.00 in0.0 mm 0.00 in0.0 mm 0.00 in0.0 mm
03:25 AM 42.4°F5.8°C 37.0°F2.8°C 81% 5.7 mph SW9.2 kmh SW 9.2 mph14.8 kmh 30.07 in1018.3 mb 0.00 in0.0 mm 0.00 in0.0 mm 0.00 in0.0 mm
03:24 AM 42.4°F5.8°C 37.0°F2.8°C 81% 5.7 mph WSW9.2 kmh WSW 9.2 mph14.8 kmh 30.07 in1018.3 mb 0.00 in0.0 mm 0.00 in0.0 mm 0.00 in0.0 mm
03:23 AM 42.4°F5.8°C 37.0°F2.8°C 81% 6.0 mph W9.7 kmh W 9.2 mph14.8 kmh 30.07 in1018.3 mb 0.00 in0.0 mm 0.00 in0.0 mm 0.00 in0.0 mm
03:22 AM 42.4°F5.8°C 37.0°F2.8°C 81% 6.1 mph W9.8 kmh W 9.2 mph14.8 kmh 30.07 in1018.3 mb 0.00 in0.0 mm 0.00 in0.0 mm 0.00 in0.0 mm
03:21 AM 42.4°F5.8°C 37.0°F2.8°C 81% 6.4 mph WSW10.3 kmh WSW 9.2 mph14.8 kmh 30.08 in1018.6 mb 0.00 in0.0 mm 0.00 in0.0 mm 0.00 in0.0 mm
03:20 AM 42.4°F5.8°C 37.0°F2.8°C 81% 5.9 mph WSW9.5 kmh WSW 9.2 mph14.8 kmh 30.07 in1018.3 mb 0.00 in0.0 mm 0.00 in0.0 mm 0.00 in0.0 mm
03:19 AM 42.4°F5.8°C 37.0°F2.8°C 81% 5.9 mph WSW9.5 kmh WSW 9.2 mph14.8 kmh 30.07 in1018.3 mb 0.00 in0.0 mm 0.00 in0.0 mm 0.00 in0.0 mm
03:18 AM 42.4°F5.8°C 37.0°F2.8°C 81% 5.9 mph WSW9.5 kmh WSW 9.2 mph14.8 kmh 30.08 in1018.6 mb 0.00 in0.0 mm 0.00 in0.0 mm 0.00 in0.0 mm
03:17 AM 42.4°F5.8°C 37.0°F2.8°C 81% 6.4 mph WSW10.3 kmh WSW 9.2 mph14.8 kmh 30.07 in1018.3 mb 0.00 in0.0 mm 0.00 in0.0 mm 0.00 in0.0 mm
03:16 AM 42.4°F5.8°C 37.3°F2.9°C 82% 6.2 mph WSW10.0 kmh WSW 9.2 mph14.8 kmh 30.07 in1018.3 mb 0.00 in0.0 mm 0.00 in0.0 mm 0.00 in0.0 mm
03:15 AM 42.4°F5.8°C 37.3°F2.9°C 82% 6.2 mph WSW10.0 kmh WSW 9.2 mph14.8 kmh 30.07 in1018.3 mb 0.00 in0.0 mm 0.00 in0.0 mm 0.00 in0.0 mm
03:14 AM 42.4°F5.8°C 37.3°F2.9°C 82% 6.2 mph WSW10.0 kmh WSW 9.2 mph14.8 kmh 30.07 in1018.3 mb 0.00 in0.0 mm 0.00 in0.0 mm 0.00 in0.0 mm
03:13 AM 42.4°F5.8°C 37.3°F2.9°C 82% 5.7 mph SW9.2 kmh SW 9.2 mph14.8 kmh 30.07 in1018.3 mb 0.00 in0.0 mm 0.00 in0.0 mm 0.00 in0.0 mm
03:12 AM 42.4°F5.8°C 37.3°F2.9°C 82% 5.7 mph SW9.2 kmh SW 9.2 mph14.8 kmh 30.07 in1018.3 mb 0.00 in0.0 mm 0.00 in0.0 mm 0.00 in0.0 mm
03:11 AM 42.4°F5.8°C 37.3°F2.9°C 82% 5.5 mph WSW8.9 kmh WSW 8.3 mph13.4 kmh 30.08 in1018.6 mb 0.00 in0.0 mm 0.00 in0.0 mm 0.00 in0.0 mm
03:10 AM 42.4°F5.8°C 37.3°F2.9°C 82% 5.9 mph WSW9.5 kmh WSW 9.2 mph14.8 kmh 30.07 in1018.3 mb 0.00 in0.0 mm 0.00 in0.0 mm 0.00 in0.0 mm
03:09 AM 42.4°F5.8°C 37.0°F2.8°C 81% 6.1 mph SW9.8 kmh SW 9.2 mph14.8 kmh 30.07 in1018.3 mb 0.00 in0.0 mm 0.00 in0.0 mm 0.00 in0.0 mm
03:08 AM 42.4°F5.8°C 37.0°F2.8°C 81% 6.0 mph SW9.7 kmh SW 9.2 mph14.8 kmh 30.07 in1018.3 mb 0.00 in0.0 mm 0.00 in0.0 mm 0.00 in0.0 mm
03:07 AM 42.4°F5.8°C 37.0°F2.8°C 81% 5.7 mph SW9.2 kmh SW 9.2 mph14.8 kmh 30.07 in1018.3 mb 0.00 in0.0 mm 0.00 in0.0 mm 0.00 in0.0 mm
03:06 AM 42.4°F5.8°C 37.0°F2.8°C 81% 5.9 mph SW9.5 kmh SW 9.2 mph14.8 kmh 30.07 in1018.3 mb 0.00 in0.0 mm 0.00 in0.0 mm 0.00 in0.0 mm
03:05 AM 42.4°F5.8°C 37.0°F2.8°C 81% 6.0 mph SW9.7 kmh SW 9.2 mph14.8 kmh 30.07 in1018.3 mb 0.00 in0.0 mm 0.00 in0.0 mm 0.00 in0.0 mm
03:04 AM 42.4°F5.8°C 37.0°F2.8°C 81% 6.0 mph SW9.7 kmh SW 9.2 mph14.8 kmh 30.08 in1018.6 mb 0.00 in0.0 mm 0.00 in0.0 mm 0.00 in0.0 mm
03:03 AM 42.4°F5.8°C 37.0°F2.8°C 81% 5.9 mph SW9.5 kmh SW 9.2 mph14.8 kmh 30.07 in1018.3 mb 0.00 in0.0 mm 0.00 in0.0 mm 0.00 in0.0 mm
03:02 AM 42.4°F5.8°C 37.0°F2.8°C 81% 5.8 mph SW9.3 kmh SW 9.2 mph14.8 kmh 30.07 in1018.3 mb 0.00 in0.0 mm 0.00 in0.0 mm 0.00 in0.0 mm
03:01 AM 42.4°F5.8°C 37.0°F2.8°C 81% 5.6 mph SW9.0 kmh SW 9.2 mph14.8 kmh 30.07 in1018.3 mb 0.00 in0.0 mm 0.00 in0.0 mm 0.00 in0.0 mm
03:00 AM 42.4°F5.8°C 37.0°F2.8°C 81% 5.3 mph SW8.5 kmh SW 8.3 mph13.4 kmh 30.07 in1018.3 mb 0.00 in0.0 mm 0.00 in0.0 mm 0.00 in0.0 mm
02:59 AM 42.4°F5.8°C 37.0°F2.8°C 81% 4.9 mph SW7.9 kmh SW 8.3 mph13.4 kmh 30.07 in1018.3 mb 0.00 in0.0 mm 0.00 in0.0 mm 0.00 in0.0 mm
02:58 AM 42.4°F5.8°C 37.0°F2.8°C 81% 5.0 mph SW8.0 kmh SW 8.3 mph13.4 kmh 30.07 in1018.3 mb 0.00 in0.0 mm 0.00 in0.0 mm 0.00 in0.0 mm
02:57 AM 42.3°F5.7°C 36.9°F2.7°C 81% 5.2 mph SW8.4 kmh SW 8.3 mph13.4 kmh 30.07 in1018.3 mb 0.00 in0.0 mm 0.00 in0.0 mm 0.00 in0.0 mm
02:56 AM 42.3°F5.7°C 36.9°F2.7°C 81% 5.0 mph SW8.0 kmh SW 8.3 mph13.4 kmh 30.07 in1018.3 mb 0.00 in0.0 mm 0.00 in0.0 mm 0.00 in0.0 mm
02:55 AM 42.3°F5.7°C 36.9°F2.7°C 81% 4.7 mph WSW7.6 kmh WSW 8.3 mph13.4 kmh 30.07 in1018.3 mb 0.00 in0.0 mm 0.00 in0.0 mm 0.00 in0.0 mm
02:54 AM 42.3°F5.7°C 36.9°F2.7°C 81% 4.7 mph SW7.6 kmh SW 7.6 mph12.2 kmh 30.07 in1018.3 mb 0.00 in0.0 mm 0.00 in0.0 mm 0.00 in0.0 mm
02:53 AM 42.3°F5.7°C 36.9°F2.7°C 81% 5.1 mph SW8.2 kmh SW 7.6 mph12.2 kmh 30.07 in1018.3 mb 0.00 in0.0 mm 0.00 in0.0 mm 0.00 in0.0 mm
02:52 AM 42.4°F5.8°C 37.0°F2.8°C 81% 5.2 mph SW8.4 kmh SW 7.6 mph12.2 kmh 30.07 in1018.3 mb 0.00 in0.0 mm 0.00 in0.0 mm 0.00 in0.0 mm
02:51 AM 42.4°F5.8°C 37.0°F2.8°C 81% 5.3 mph SW8.5 kmh SW 7.6 mph12.2 kmh 30.07 in1018.3 mb 0.00 in0.0 mm 0.00 in0.0 mm 0.00 in0.0 mm
02:50 AM 42.4°F5.8°C 37.0°F2.8°C 81% 5.2 mph SW8.4 kmh SW 7.6 mph12.2 kmh 30.07 in1018.3 mb 0.00 in0.0 mm 0.00 in0.0 mm 0.00 in0.0 mm
02:49 AM 42.4°F5.8°C 36.7°F2.6°C 80% 5.1 mph SW8.2 kmh SW 7.6 mph12.2 kmh 30.07 in1018.3 mb 0.00 in0.0 mm 0.00 in0.0 mm 0.00 in0.0 mm
02:48 AM 42.4°F5.8°C 36.7°F2.6°C 80% 4.9 mph SW7.9 kmh SW 7.6 mph12.2 kmh 30.07 in1018.3 mb 0.00 in0.0 mm 0.00 in0.0 mm 0.00 in0.0 mm
02:47 AM 42.4°F5.8°C 36.7°F2.6°C 80% 4.9 mph SW7.9 kmh SW 7.6 mph12.2 kmh 30.07 in1018.3 mb 0.00 in0.0 mm 0.00 in0.0 mm 0.00 in0.0 mm
02:46 AM 42.4°F5.8°C 36.7°F2.6°C 80% 4.8 mph SW7.7 kmh SW 7.6 mph12.2 kmh 30.07 in1018.3 mb 0.00 in0.0 mm 0.00 in0.0 mm 0.00 in0.0 mm
02:45 AM 42.4°F5.8°C 36.7°F2.6°C 80% 4.9 mph SW7.9 kmh SW 7.6 mph12.2 kmh 30.07 in1018.3 mb 0.00 in0.0 mm 0.00 in0.0 mm 0.00 in0.0 mm
02:44 AM 42.4°F5.8°C 36.7°F2.6°C 80% 4.7 mph WSW7.6 kmh WSW 6.9 mph11.1 kmh 30.07 in1018.3 mb 0.00 in0.0 mm 0.00 in0.0 mm 0.00 in0.0 mm
02:43 AM 42.4°F5.8°C 36.7°F2.6°C 80% 4.5 mph WSW7.2 kmh WSW 6.9 mph11.1 kmh 30.07 in1018.3 mb 0.00 in0.0 mm 0.00 in0.0 mm 0.00 in0.0 mm
02:42 AM 42.4°F5.8°C 36.7°F2.6°C 80% 4.7 mph WSW7.6 kmh WSW 11.4 mph18.3 kmh 30.07 in1018.3 mb 0.00 in0.0 mm 0.00 in0.0 mm 0.00 in0.0 mm
02:41 AM 42.4°F5.8°C 36.7°F2.6°C 80% 5.2 mph WSW8.4 kmh WSW 11.4 mph18.3 kmh 30.07 in1018.3 mb 0.00 in0.0 mm 0.00 in0.0 mm 0.00 in0.0 mm
02:40 AM 42.4°F5.8°C 36.7°F2.6°C 80% 5.0 mph WSW8.0 kmh WSW 11.4 mph18.3 kmh 30.07 in1018.3 mb 0.00 in0.0 mm 0.00 in0.0 mm 0.00 in0.0 mm
02:39 AM 42.4°F5.8°C 36.7°F2.6°C 80% 5.5 mph WSW8.9 kmh WSW 11.4 mph18.3 kmh 30.07 in1018.3 mb 0.00 in0.0 mm 0.00 in0.0 mm 0.00 in0.0 mm
02:38 AM 42.4°F5.8°C 36.7°F2.6°C 80% 5.8 mph SW9.3 kmh SW 11.4 mph18.3 kmh 30.07 in1018.3 mb 0.00 in0.0 mm 0.00 in0.0 mm 0.00 in0.0 mm
02:37 AM 42.4°F5.8°C 36.7°F2.6°C 80% 5.8 mph SW9.3 kmh SW 11.4 mph18.3 kmh 30.07 in1018.3 mb 0.00 in0.0 mm 0.00 in0.0 mm 0.00 in0.0 mm
02:36 AM 42.4°F5.8°C 36.7°F2.6°C 80% 5.8 mph SW9.3 kmh SW 11.4 mph18.3 kmh 30.07 in1018.3 mb 0.00 in0.0 mm 0.00 in0.0 mm 0.00 in0.0 mm
02:35 AM 42.4°F5.8°C 36.7°F2.6°C 80% 5.8 mph SW9.3 kmh SW 11.4 mph18.3 kmh 30.06 in1017.9 mb 0.00 in0.0 mm 0.00 in0.0 mm 0.00 in0.0 mm
02:34 AM 42.4°F5.8°C 37.0°F2.8°C 81% 5.9 mph SW9.5 kmh SW 11.4 mph18.3 kmh 30.06 in1017.9 mb 0.00 in0.0 mm 0.00 in0.0 mm 0.00 in0.0 mm
02:33 AM 42.4°F5.8°C 37.0°F2.8°C 81% 6.1 mph SW9.8 kmh SW 11.4 mph18.3 kmh 30.06 in1017.9 mb 0.00 in0.0 mm 0.00 in0.0 mm 0.00 in0.0 mm
02:32 AM 42.4°F5.8°C 37.0°F2.8°C 81% 5.8 mph SW9.3 kmh SW 11.4 mph18.3 kmh 30.06 in1017.9 mb 0.00 in0.0 mm 0.00 in0.0 mm 0.00 in0.0 mm
02:31 AM 42.4°F5.8°C 37.0°F2.8°C 81% 5.3 mph SW8.5 kmh SW 8.3 mph13.4 kmh 30.06 in1017.9 mb 0.00 in0.0 mm 0.00 in0.0 mm 0.00 in0.0 mm
02:30 AM 42.8°F6.0°C 37.1°F2.8°C 80% 5.5 mph SW8.9 kmh SW 8.3 mph13.4 kmh 30.06 in1017.9 mb 0.00 in0.0 mm 0.00 in0.0 mm 0.00 in0.0 mm
02:29 AM 42.4°F5.8°C 37.0°F2.8°C 81% 5.5 mph WSW8.9 kmh WSW 8.3 mph13.4 kmh 30.06 in1017.9 mb 0.00 in0.0 mm 0.00 in0.0 mm 0.00 in0.0 mm
02:28 AM 42.4°F5.8°C 37.0°F2.8°C 81% 5.3 mph WSW8.5 kmh WSW 8.3 mph13.4 kmh 30.06 in1017.9 mb 0.00 in0.0 mm 0.00 in0.0 mm 0.00 in0.0 mm
02:27 AM 42.4°F5.8°C 37.0°F2.8°C 81% 5.4 mph W8.7 kmh W 8.3 mph13.4 kmh 30.07 in1018.3 mb 0.00 in0.0 mm 0.00 in0.0 mm 0.00 in0.0 mm
02:26 AM 42.4°F5.8°C 37.0°F2.8°C 81% 5.4 mph W8.7 kmh W 8.3 mph13.4 kmh 30.07 in1018.3 mb 0.00 in0.0 mm 0.00 in0.0 mm 0.00 in0.0 mm
02:25 AM 42.4°F5.8°C 36.7°F2.6°C 80% 5.9 mph WNW9.5 kmh WNW 9.8 mph15.8 kmh 30.07 in1018.3 mb 0.00 in0.0 mm 0.00 in0.0 mm 0.00 in0.0 mm
02:24 AM 42.4°F5.8°C 36.7°F2.6°C 80% 6.2 mph WNW10.0 kmh WNW 9.8 mph15.8 kmh 30.06 in1017.9 mb 0.00 in0.0 mm 0.00 in0.0 mm 0.00 in0.0 mm
02:23 AM 42.4°F5.8°C 37.0°F2.8°C 81% 6.4 mph W10.3 kmh W 9.8 mph15.8 kmh 30.07 in1018.3 mb 0.00 in0.0 mm 0.00 in0.0 mm 0.00 in0.0 mm
02:22 AM 42.8°F6.0°C 37.1°F2.8°C 80% 6.8 mph W10.9 kmh W 10.7 mph17.2 kmh 30.07 in1018.3 mb 0.00 in0.0 mm 0.00 in0.0 mm 0.00 in0.0 mm
02:21 AM 42.8°F6.0°C 37.1°F2.8°C 80% 6.8 mph W10.9 kmh W 10.7 mph17.2 kmh 30.07 in1018.3 mb 0.00 in0.0 mm 0.00 in0.0 mm 0.00 in0.0 mm
02:20 AM 42.8°F6.0°C 37.1°F2.8°C 80% 7.2 mph W11.6 kmh W 10.7 mph17.2 kmh 30.07 in1018.3 mb 0.00 in0.0 mm 0.00 in0.0 mm 0.00 in0.0 mm
02:19 AM 42.8°F6.0°C 37.1°F2.8°C 80% 7.6 mph WSW12.2 kmh WSW 10.7 mph17.2 kmh 30.07 in1018.3 mb 0.00 in0.0 mm 0.00 in0.0 mm 0.00 in0.0 mm
02:18 AM 42.8°F6.0°C 37.1°F2.8°C 80% 7.4 mph WSW11.9 kmh WSW 10.7 mph17.2 kmh 30.07 in1018.3 mb 0.00 in0.0 mm 0.00 in0.0 mm 0.00 in0.0 mm
02:17 AM 42.8°F6.0°C 37.1°F2.8°C 80% 7.4 mph WSW11.9 kmh WSW 10.7 mph17.2 kmh 30.07 in1018.3 mb 0.00 in0.0 mm 0.00 in0.0 mm 0.00 in0.0 mm
02:16 AM 42.8°F6.0°C 37.1°F2.8°C 80% 7.3 mph WSW11.7 kmh WSW 10.7 mph17.2 kmh 30.06 in1017.9 mb 0.00 in0.0 mm 0.00 in0.0 mm 0.00 in0.0 mm
02:15 AM 42.8°F6.0°C 37.1°F2.8°C 80% 6.9 mph WSW11.1 kmh WSW 10.7 mph17.2 kmh 30.06 in1017.9 mb 0.00 in0.0 mm 0.00 in0.0 mm 0.00 in0.0 mm
02:14 AM 42.4°F5.8°C 37.0°F2.8°C 81% 6.5 mph WSW10.5 kmh WSW 10.7 mph17.2 kmh 30.06 in1017.9 mb 0.00 in0.0 mm 0.00 in0.0 mm 0.00 in0.0 mm
02:13 AM 42.4°F5.8°C 36.7°F2.6°C 80% 6.1 mph WSW9.8 kmh WSW 10.7 mph17.2 kmh 30.07 in1018.3 mb 0.00 in0.0 mm 0.00 in0.0 mm 0.00 in0.0 mm
02:12 AM 42.4°F5.8°C 36.7°F2.6°C 80% 5.6 mph SW9.0 kmh SW 10.7 mph17.2 kmh 30.06 in1017.9 mb 0.00 in0.0 mm 0.00 in0.0 mm 0.00 in0.0 mm
02:11 AM 42.4°F5.8°C 36.7°F2.6°C 80% 5.7 mph SW9.2 kmh SW 10.7 mph17.2 kmh 30.06 in1017.9 mb 0.00 in0.0 mm 0.00 in0.0 mm 0.00 in0.0 mm
02:10 AM 42.4°F5.8°C 36.7°F2.6°C 80% 5.3 mph SW8.5 kmh SW 10.7 mph17.2 kmh 30.06 in1017.9 mb 0.00 in0.0 mm 0.00 in0.0 mm 0.00 in0.0 mm
02:09 AM 42.4°F5.8°C 36.7°F2.6°C 80% 4.8 mph SW7.7 kmh SW 6.9 mph11.1 kmh 30.06 in1017.9 mb 0.00 in0.0 mm 0.00 in0.0 mm 0.00 in0.0 mm
02:08 AM 42.4°F5.8°C 36.7°F2.6°C 80% 4.9 mph SW7.9 kmh SW 6.9 mph11.1 kmh 30.06 in1017.9 mb 0.00 in0.0 mm 0.00 in0.0 mm 0.00 in0.0 mm
02:07 AM 42.8°F6.0°C 36.7°F2.6°C 79% 4.9 mph SW7.9 kmh SW 6.9 mph11.1 kmh 30.06 in1017.9 mb 0.00 in0.0 mm 0.00 in0.0 mm 0.00 in0.0 mm
02:06 AM 42.8°F6.0°C 36.7°F2.6°C 79% 5.1 mph SW8.2 kmh SW 7.6 mph12.2 kmh 30.06 in1017.9 mb 0.00 in0.0 mm 0.00 in0.0 mm 0.00 in0.0 mm
02:05 AM 42.8°F6.0°C 36.7°F2.6°C 79% 5.5 mph SW8.9 kmh SW 7.6 mph12.2 kmh 30.06 in1017.9 mb 0.00 in0.0 mm 0.00 in0.0 mm 0.00 in0.0 mm
02:04 AM 42.8°F6.0°C 36.7°F2.6°C 79% 5.5 mph SW8.9 kmh SW 7.6 mph12.2 kmh 30.06 in1017.9 mb 0.00 in0.0 mm 0.00 in0.0 mm 0.00 in0.0 mm
02:03 AM 42.8°F6.0°C 36.7°F2.6°C 79% 5.6 mph WSW9.0 kmh WSW 7.6 mph12.2 kmh 30.06 in1017.9 mb 0.00 in0.0 mm 0.00 in0.0 mm 0.00 in0.0 mm
02:02 AM 42.8°F6.0°C 36.7°F2.6°C 79% 5.9 mph WSW9.5 kmh WSW 12.1 mph19.5 kmh 30.06 in1017.9 mb 0.00 in0.0 mm 0.00 in0.0 mm 0.00 in0.0 mm
02:01 AM 42.8°F6.0°C 36.7°F2.6°C 79% 6.3 mph WSW10.1 kmh WSW 12.1 mph19.5 kmh 30.06 in1017.9 mb 0.00 in0.0 mm 0.00 in0.0 mm 0.00 in0.0 mm
02:00 AM 42.8°F6.0°C 36.7°F2.6°C 79% 6.3 mph WSW10.1 kmh WSW 12.1 mph19.5 kmh 30.05 in1017.6 mb 0.00 in0.0 mm 0.00 in0.0 mm 0.00 in0.0 mm
01:59 AM 42.8°F6.0°C 36.7°F2.6°C 79% 6.5 mph WSW10.5 kmh WSW 12.1 mph19.5 kmh 30.05 in1017.6 mb 0.00 in0.0 mm 0.00 in0.0 mm 0.00 in0.0 mm
01:58 AM 42.8°F6.0°C 36.7°F2.6°C 79% 6.6 mph WSW10.6 kmh WSW 12.1 mph19.5 kmh 30.06 in1017.9 mb 0.00 in0.0 mm 0.00 in0.0 mm 0.00 in0.0 mm
01:57 AM 42.8°F6.0°C 36.7°F2.6°C 79% 6.4 mph WSW10.3 kmh WSW 12.1 mph19.5 kmh 30.06 in1017.9 mb 0.00 in0.0 mm 0.00 in0.0 mm 0.00 in0.0 mm
01:56 AM 42.8°F6.0°C 36.7°F2.6°C 79% 6.4 mph WSW10.3 kmh WSW 12.1 mph19.5 kmh 30.05 in1017.6 mb 0.00 in0.0 mm 0.00 in0.0 mm 0.00 in0.0 mm
01:55 AM 42.8°F6.0°C 36.7°F2.6°C 79% 6.4 mph WSW10.3 kmh WSW 12.1 mph19.5 kmh 30.06 in1017.9 mb 0.00 in0.0 mm 0.00 in0.0 mm 0.00 in0.0 mm
01:54 AM 42.8°F6.0°C 36.7°F2.6°C 79% 6.3 mph WSW10.1 kmh WSW 12.1 mph19.5 kmh 30.05 in1017.6 mb 0.00 in0.0 mm 0.00 in0.0 mm 0.00 in0.0 mm
01:53 AM 42.8°F6.0°C 36.7°F2.6°C 79% 6.2 mph WSW10.0 kmh WSW 12.1 mph19.5 kmh 30.05 in1017.6 mb 0.00 in0.0 mm 0.00 in0.0 mm 0.00 in0.0 mm
01:52 AM 42.8°F6.0°C 36.7°F2.6°C 79% 6.0 mph WSW9.7 kmh WSW 12.1 mph19.5 kmh 30.05 in1017.6 mb 0.00 in0.0 mm 0.00 in0.0 mm 0.00 in0.0 mm
01:51 AM 42.8°F6.0°C 36.7°F2.6°C 79% 5.6 mph WSW9.0 kmh WSW 8.3 mph13.4 kmh 30.05 in1017.6 mb 0.00 in0.0 mm 0.00 in0.0 mm 0.00 in0.0 mm
01:50 AM 42.8°F6.0°C 36.7°F2.6°C 79% 5.8 mph WSW9.3 kmh WSW 8.3 mph13.4 kmh 30.05 in1017.6 mb 0.00 in0.0 mm 0.00 in0.0 mm 0.00 in0.0 mm
01:49 AM 42.8°F6.0°C 36.7°F2.6°C 79% 5.8 mph WSW9.3 kmh WSW 8.3 mph13.4 kmh 30.05 in1017.6 mb 0.00 in0.0 mm 0.00 in0.0 mm 0.00 in0.0 mm
01:48 AM 42.8°F6.0°C 36.7°F2.6°C 79% 5.7 mph WSW9.2 kmh WSW 8.3 mph13.4 kmh 30.05 in1017.6 mb 0.00 in0.0 mm 0.00 in0.0 mm 0.00 in0.0 mm
01:47 AM 42.8°F6.0°C 36.7°F2.6°C 79% 5.9 mph WSW9.5 kmh WSW 8.3 mph13.4 kmh 30.05 in1017.6 mb 0.00 in0.0 mm 0.00 in0.0 mm 0.00 in0.0 mm
01:46 AM 42.8°F6.0°C 36.7°F2.6°C 79% 6.0 mph WSW9.7 kmh WSW 8.3 mph13.4 kmh 30.05 in1017.6 mb 0.00 in0.0 mm 0.00 in0.0 mm 0.00 in0.0 mm
01:45 AM 42.8°F6.0°C 36.4°F2.4°C 78% 5.8 mph WSW9.3 kmh WSW 8.3 mph13.4 kmh 30.05 in1017.6 mb 0.00 in0.0 mm 0.00 in0.0 mm 0.00 in0.0 mm
01:44 AM 42.8°F6.0°C 36.4°F2.4°C 78% 5.9 mph WSW9.5 kmh WSW 8.3 mph13.4 kmh 30.05 in1017.6 mb 0.00 in0.0 mm 0.00 in0.0 mm 0.00 in0.0 mm
01:43 AM 42.8°F6.0°C 36.4°F2.4°C 78% 6.1 mph WSW9.8 kmh WSW 8.3 mph13.4 kmh 30.05 in1017.6 mb 0.00 in0.0 mm 0.00 in0.0 mm 0.00 in0.0 mm
01:42 AM 42.8°F6.0°C 36.4°F2.4°C 78% 6.5 mph WSW10.5 kmh WSW 9.2 mph14.8 kmh 30.05 in1017.6 mb 0.00 in0.0 mm 0.00 in0.0 mm 0.00 in0.0 mm
01:41 AM 42.8°F6.0°C 36.4°F2.4°C 78% 6.7 mph SW10.8 kmh SW 9.2 mph14.8 kmh 30.05 in1017.6 mb 0.00 in0.0 mm 0.00 in0.0 mm 0.00 in0.0 mm
01:40 AM 42.8°F6.0°C 36.4°F2.4°C 78% 6.8 mph SW10.9 kmh SW 9.2 mph14.8 kmh 30.05 in1017.6 mb 0.00 in0.0 mm 0.00 in0.0 mm 0.00 in0.0 mm
01:39 AM 42.8°F6.0°C 36.4°F2.4°C 78% 6.7 mph SW10.8 kmh SW 9.2 mph14.8 kmh 30.05 in1017.6 mb 0.00 in0.0 mm 0.00 in0.0 mm 0.00 in0.0 mm
01:38 AM 42.8°F6.0°C 36.4°F2.4°C 78% 6.8 mph SW10.9 kmh SW 13.0 mph20.9 kmh 30.05 in1017.6 mb 0.00 in0.0 mm 0.00 in0.0 mm 0.00 in0.0 mm
01:37 AM 42.8°F6.0°C 36.4°F2.4°C 78% 6.9 mph WSW11.1 kmh WSW 13.0 mph20.9 kmh 30.05 in1017.6 mb 0.00 in0.0 mm 0.00 in0.0 mm 0.00 in0.0 mm
01:36 AM 43.0°F6.1°C 36.6°F2.6°C 78% 7.1 mph WSW11.4 kmh WSW 13.0 mph20.9 kmh 30.05 in1017.6 mb 0.00 in0.0 mm 0.00 in0.0 mm 0.00 in0.0 mm
01:35 AM 42.8°F6.0°C 36.1°F2.3°C 77% 7.4 mph WSW11.9 kmh WSW 13.0 mph20.9 kmh 30.05 in1017.6 mb 0.00 in0.0 mm 0.00 in0.0 mm 0.00 in0.0 mm
01:34 AM 42.8°F6.0°C 36.1°F2.3°C 77% 7.5 mph SW12.1 kmh SW 13.0 mph20.9 kmh 30.05 in1017.6 mb 0.00 in0.0 mm 0.00 in0.0 mm 0.00 in0.0 mm
01:33 AM 42.8°F6.0°C 36.1°F2.3°C 77% 7.5 mph WSW12.1 kmh WSW 13.0 mph20.9 kmh 30.05 in1017.6 mb 0.00 in0.0 mm 0.00 in0.0 mm 0.00 in0.0 mm
01:32 AM 42.8°F6.0°C 36.1°F2.3°C 77% 7.1 mph SW11.4 kmh SW 13.0 mph20.9 kmh 30.05 in1017.6 mb 0.00 in0.0 mm 0.00 in0.0 mm 0.00 in0.0 mm
01:31 AM 42.8°F6.0°C 36.1°F2.3°C 77% 6.8 mph SW10.9 kmh SW 13.0 mph20.9 kmh 30.05 in1017.6 mb 0.00 in0.0 mm 0.00 in0.0 mm 0.00 in0.0 mm
01:30 AM 42.8°F6.0°C 36.1°F2.3°C 77% 6.4 mph SW10.3 kmh SW 13.0 mph20.9 kmh 30.05 in1017.6 mb 0.00 in0.0 mm 0.00 in0.0 mm 0.00 in0.0 mm
01:29 AM 42.8°F6.0°C 36.1°F2.3°C 77% 6.5 mph SW10.5 kmh SW 13.0 mph20.9 kmh 30.05 in1017.6 mb 0.00 in0.0 mm 0.00 in0.0 mm 0.00 in0.0 mm
01:28 AM 42.8°F6.0°C 36.1°F2.3°C 77% 6.3 mph SW10.1 kmh SW 13.0 mph20.9 kmh 30.05 in1017.6 mb 0.00 in0.0 mm 0.00 in0.0 mm 0.00 in0.0 mm
01:27 AM 42.8°F6.0°C 36.1°F2.3°C 77% 6.2 mph SW10.0 kmh SW 9.8 mph15.8 kmh 30.05 in1017.6 mb 0.00 in0.0 mm 0.00 in0.0 mm 0.00 in0.0 mm
01:26 AM 42.8°F6.0°C 36.1°F2.3°C 77% 6.0 mph SW9.7 kmh SW 9.8 mph15.8 kmh 30.05 in1017.6 mb 0.00 in0.0 mm 0.00 in0.0 mm 0.00 in0.0 mm
01:25 AM 42.8°F6.0°C 36.1°F2.3°C 77% 5.7 mph SW9.2 kmh SW 8.3 mph13.4 kmh 30.05 in1017.6 mb 0.00 in0.0 mm 0.00 in0.0 mm 0.00 in0.0 mm
01:24 AM 42.8°F6.0°C 36.1°F2.3°C 77% 5.6 mph WSW9.0 kmh WSW 8.3 mph13.4 kmh 30.05 in1017.6 mb 0.00 in0.0 mm 0.00 in0.0 mm 0.00 in0.0 mm
01:23 AM 42.8°F6.0°C 36.1°F2.3°C 77% 5.4 mph WSW8.7 kmh WSW 8.3 mph13.4 kmh 30.05 in1017.6 mb 0.00 in0.0 mm 0.00 in0.0 mm 0.00 in0.0 mm
01:22 AM 42.8°F6.0°C 36.1°F2.3°C 77% 5.5 mph WSW8.9 kmh WSW 8.3 mph13.4 kmh 30.05 in1017.6 mb 0.00 in0.0 mm 0.00 in0.0 mm 0.00 in0.0 mm
01:21 AM 42.8°F6.0°C 36.1°F2.3°C 77% 5.5 mph SW8.9 kmh SW 8.3 mph13.4 kmh 30.05 in1017.6 mb 0.00 in0.0 mm 0.00 in0.0 mm 0.00 in0.0 mm
01:20 AM 42.8°F6.0°C 36.1°F2.3°C 77% 5.9 mph SW9.5 kmh SW 8.3 mph13.4 kmh 30.05 in1017.6 mb 0.00 in0.0 mm 0.00 in0.0 mm 0.00 in0.0 mm
01:19 AM 42.8°F6.0°C 36.1°F2.3°C 77% 6.0 mph SW9.7 kmh SW 8.3 mph13.4 kmh 30.05 in1017.6 mb 0.00 in0.0 mm 0.00 in0.0 mm 0.00 in0.0 mm
01:18 AM 42.8°F6.0°C 36.1°F2.3°C 77% 6.2 mph WSW10.0 kmh WSW 8.3 mph13.4 kmh 30.05 in1017.6 mb 0.00 in0.0 mm 0.00 in0.0 mm 0.00 in0.0 mm
01:17 AM 42.8°F6.0°C 35.8°F2.1°C 76% 5.8 mph WSW9.3 kmh WSW 8.3 mph13.4 kmh 30.05 in1017.6 mb 0.00 in0.0 mm 0.00 in0.0 mm 0.00 in0.0 mm
01:16 AM 42.8°F6.0°C 35.8°F2.1°C 76% 5.5 mph SW8.9 kmh SW 8.3 mph13.4 kmh 30.05 in1017.6 mb 0.00 in0.0 mm 0.00 in0.0 mm 0.00 in0.0 mm
01:15 AM 42.8°F6.0°C 35.8°F2.1°C 76% 5.9 mph SW9.5 kmh SW 9.8 mph15.8 kmh 30.05 in1017.6 mb 0.00 in0.0 mm 0.00 in0.0 mm 0.00 in0.0 mm
01:14 AM 42.8°F6.0°C 35.8°F2.1°C 76% 5.9 mph SW9.5 kmh SW 10.7 mph17.2 kmh 30.05 in1017.6 mb 0.00 in0.0 mm 0.00 in0.0 mm 0.00 in0.0 mm
01:13 AM 42.8°F6.0°C 35.8°F2.1°C 76% 6.4 mph SW10.3 kmh SW 11.4 mph18.3 kmh 30.05 in1017.6 mb 0.00 in0.0 mm 0.00 in0.0 mm 0.00 in0.0 mm
01:12 AM 42.8°F6.0°C 35.8°F2.1°C 76% 6.6 mph SW10.6 kmh SW 11.4 mph18.3 kmh 30.05 in1017.6 mb 0.00 in0.0 mm 0.00 in0.0 mm 0.00 in0.0 mm
01:11 AM 42.8°F6.0°C 35.8°F2.1°C 76% 6.5 mph SW10.5 kmh SW 11.4 mph18.3 kmh 30.05 in1017.6 mb 0.00 in0.0 mm 0.00 in0.0 mm 0.00 in0.0 mm
01:10 AM 42.8°F6.0°C 35.4°F1.9°C 75% 6.1 mph SW9.8 kmh SW 11.4 mph18.3 kmh 30.05 in1017.6 mb 0.00 in0.0 mm 0.00 in0.0 mm 0.00 in0.0 mm
01:09 AM 42.8°F6.0°C 35.4°F1.9°C 75% 6.2 mph SW10.0 kmh SW 11.4 mph18.3 kmh 30.04 in1017.3 mb 0.00 in0.0 mm 0.00 in0.0 mm 0.00 in0.0 mm
01:08 AM 42.8°F6.0°C 35.4°F1.9°C 75% 6.3 mph SW10.1 kmh SW 11.4 mph18.3 kmh 30.05 in1017.6 mb 0.00 in0.0 mm 0.00 in0.0 mm 0.00 in0.0 mm
01:07 AM 43.0°F6.1°C 35.6°F2.0°C 75% 6.7 mph SW10.8 kmh SW 11.4 mph18.3 kmh 30.05 in1017.6 mb 0.00 in0.0 mm 0.00 in0.0 mm 0.00 in0.0 mm
01:06 AM 43.0°F6.1°C 35.6°F2.0°C 75% 7.4 mph SW11.9 kmh SW 11.4 mph18.3 kmh 30.04 in1017.3 mb 0.00 in0.0 mm 0.00 in0.0 mm 0.00 in0.0 mm
01:05 AM 43.0°F6.1°C 35.6°F2.0°C 75% 7.1 mph SW11.4 kmh SW 11.4 mph18.3 kmh 30.04 in1017.3 mb 0.00 in0.0 mm 0.00 in0.0 mm 0.00 in0.0 mm
01:04 AM 43.0°F6.1°C 35.6°F2.0°C 75% 7.4 mph SW11.9 kmh SW 11.4 mph18.3 kmh 30.04 in1017.3 mb 0.00 in0.0 mm 0.00 in0.0 mm 0.00 in0.0 mm
01:03 AM 43.0°F6.1°C 35.6°F2.0°C 75% 6.9 mph SW11.1 kmh SW 11.4 mph18.3 kmh 30.04 in1017.3 mb 0.00 in0.0 mm 0.00 in0.0 mm 0.00 in0.0 mm
01:02 AM 43.0°F6.1°C 35.6°F2.0°C 75% 6.9 mph SW11.1 kmh SW 10.7 mph17.2 kmh 30.04 in1017.3 mb 0.00 in0.0 mm 0.00 in0.0 mm 0.00 in0.0 mm
01:01 AM 43.0°F6.1°C 35.6°F2.0°C 75% 7.5 mph SW12.1 kmh SW 12.1 mph19.5 kmh 30.04 in1017.3 mb 0.00 in0.0 mm 0.00 in0.0 mm 0.00 in0.0 mm
01:00 AM 43.0°F6.1°C 35.3°F1.8°C 74% 8.0 mph WSW12.9 kmh WSW 12.1 mph19.5 kmh 30.04 in1017.3 mb 0.00 in0.0 mm 0.00 in0.0 mm 0.00 in0.0 mm
12:59 AM 43.0°F6.1°C 35.3°F1.8°C 74% 8.0 mph SW12.9 kmh SW 12.1 mph19.5 kmh 30.04 in1017.3 mb 0.00 in0.0 mm 0.00 in0.0 mm 0.00 in0.0 mm
12:58 AM 43.2°F6.2°C 35.4°F1.9°C 74% 8.0 mph SW12.9 kmh SW 12.1 mph19.5 kmh 30.04 in1017.3 mb 0.00 in0.0 mm 0.00 in0.0 mm 0.00 in0.0 mm
12:57 AM 43.2°F6.2°C 35.4°F1.9°C 74% 8.0 mph SW12.9 kmh SW 12.1 mph19.5 kmh 30.04 in1017.3 mb 0.00 in0.0 mm 0.00 in0.0 mm 0.00 in0.0 mm
12:56 AM 43.2°F6.2°C 35.4°F1.9°C 74% 7.8 mph WSW12.6 kmh WSW 12.1 mph19.5 kmh 30.04 in1017.3 mb 0.00 in0.0 mm 0.00 in0.0 mm 0.00 in0.0 mm
12:55 AM 43.2°F6.2°C 35.4°F1.9°C 74% 8.0 mph WSW12.9 kmh WSW 12.1 mph19.5 kmh 30.04 in1017.3 mb 0.00 in0.0 mm 0.00 in0.0 mm 0.00 in0.0 mm
12:54 AM 43.2°F6.2°C 35.4°F1.9°C 74% 8.3 mph WSW13.4 kmh WSW 12.1 mph19.5 kmh 30.04 in1017.3 mb 0.00 in0.0 mm 0.00 in0.0 mm 0.00 in0.0 mm
12:53 AM 43.2°F6.2°C 35.4°F1.9°C 74% 8.2 mph WSW13.2 kmh WSW 12.1 mph19.5 kmh 30.04 in1017.3 mb 0.00 in0.0 mm 0.00 in0.0 mm 0.00 in0.0 mm
12:52 AM 43.2°F6.2°C 35.8°F2.1°C 75% 8.1 mph WSW13.0 kmh WSW 12.1 mph19.5 kmh 30.04 in1017.3 mb 0.00 in0.0 mm 0.00 in0.0 mm 0.00 in0.0 mm
12:51 AM 43.2°F6.2°C 35.8°F2.1°C 75% 8.1 mph WSW13.0 kmh WSW 12.1 mph19.5 kmh 30.04 in1017.3 mb 0.00 in0.0 mm 0.00 in0.0 mm 0.00 in0.0 mm
12:50 AM 43.2°F6.2°C 35.8°F2.1°C 75% 8.0 mph SW12.9 kmh SW 12.1 mph19.5 kmh 30.04 in1017.3 mb 0.00 in0.0 mm 0.00 in0.0 mm 0.00 in0.0 mm
12:49 AM 43.2°F6.2°C 35.8°F2.1°C 75% 8.0 mph SW12.9 kmh SW 12.1 mph19.5 kmh 30.04 in1017.3 mb 0.00 in0.0 mm 0.00 in0.0 mm 0.00 in0.0 mm
12:48 AM 43.2°F6.2°C 36.1°F2.3°C 76% 8.0 mph SW12.9 kmh SW 12.1 mph19.5 kmh 30.04 in1017.3 mb 0.00 in0.0 mm 0.00 in0.0 mm 0.00 in0.0 mm
12:47 AM 43.2°F6.2°C 36.1°F2.3°C 76% 7.6 mph SW12.2 kmh SW 12.1 mph19.5 kmh 30.04 in1017.3 mb 0.00 in0.0 mm 0.00 in0.0 mm 0.00 in0.0 mm
12:46 AM 43.2°F6.2°C 36.1°F2.3°C 76% 7.5 mph SW12.1 kmh SW 12.1 mph19.5 kmh 30.04 in1017.3 mb 0.00 in0.0 mm 0.00 in0.0 mm 0.00 in0.0 mm
12:45 AM 43.2°F6.2°C 36.1°F2.3°C 76% 7.3 mph SW11.7 kmh SW 12.1 mph19.5 kmh 30.04 in1017.3 mb 0.00 in0.0 mm 0.00 in0.0 mm 0.00 in0.0 mm
12:44 AM 43.2°F6.2°C 36.1°F2.3°C 76% 7.3 mph SW11.7 kmh SW 11.4 mph18.3 kmh 30.04 in1017.3 mb 0.00 in0.0 mm 0.00 in0.0 mm 0.00 in0.0 mm
12:43 AM 43.2°F6.2°C 36.1°F2.3°C 76% 7.3 mph SW11.7 kmh SW 11.4 mph18.3 kmh 30.04 in1017.3 mb 0.00 in0.0 mm 0.00 in0.0 mm 0.00 in0.0 mm
12:42 AM 43.2°F6.2°C 36.4°F2.4°C 77% 7.4 mph SW11.9 kmh SW 11.4 mph18.3 kmh 30.04 in1017.3 mb 0.00 in0.0 mm 0.00 in0.0 mm 0.00 in0.0 mm
12:41 AM 43.2°F6.2°C 36.1°F2.3°C 76% 7.0 mph SW11.3 kmh SW 10.7 mph17.2 kmh 30.04 in1017.3 mb 0.00 in0.0 mm 0.00 in0.0 mm 0.00 in0.0 mm
12:40 AM 43.2°F6.2°C 36.1°F2.3°C 76% 7.1 mph SW11.4 kmh SW 10.7 mph17.2 kmh 30.04 in1017.3 mb 0.00 in0.0 mm 0.00 in0.0 mm 0.00 in0.0 mm
12:39 AM 43.2°F6.2°C 36.1°F2.3°C 76% 7.3 mph SSW11.7 kmh SSW 10.7 mph17.2 kmh 30.04 in1017.3 mb 0.00 in0.0 mm 0.00 in0.0 mm 0.00 in0.0 mm
12:38 AM 43.2°F6.2°C 36.1°F2.3°C 76% 7.1 mph SSW11.4 kmh SSW 10.7 mph17.2 kmh 30.04 in1017.3 mb 0.00 in0.0 mm 0.00 in0.0 mm 0.00 in0.0 mm
12:37 AM 43.2°F6.2°C 36.1°F2.3°C 76% 7.4 mph SW11.9 kmh SW 10.7 mph17.2 kmh 30.04 in1017.3 mb 0.00 in0.0 mm 0.00 in0.0 mm 0.00 in0.0 mm
12:36 AM 43.2°F6.2°C 36.1°F2.3°C 76% 7.7 mph SW12.4 kmh SW 10.7 mph17.2 kmh 30.04 in1017.3 mb 0.00 in0.0 mm 0.00 in0.0 mm 0.00 in0.0 mm
12:35 AM 43.2°F6.2°C 36.1°F2.3°C 76% 7.9 mph SW12.7 kmh SW 10.7 mph17.2 kmh 30.04 in1017.3 mb 0.00 in0.0 mm 0.00 in0.0 mm 0.00 in0.0 mm
12:34 AM 43.2°F6.2°C 36.1°F2.3°C 76% 7.8 mph SW12.6 kmh SW 10.7 mph17.2 kmh 30.04 in1017.3 mb 0.00 in0.0 mm 0.00 in0.0 mm 0.00 in0.0 mm
12:33 AM 43.3°F6.3°C 36.3°F2.4°C 76% 8.1 mph SW13.0 kmh SW 10.7 mph17.2 kmh 30.04 in1017.3 mb 0.00 in0.0 mm 0.00 in0.0 mm 0.00 in0.0 mm
12:32 AM 43.3°F6.3°C 36.3°F2.4°C 76% 8.6 mph SW13.8 kmh SW 13.0 mph20.9 kmh 30.04 in1017.3 mb 0.00 in0.0 mm 0.00 in0.0 mm 0.00 in0.0 mm
12:31 AM 43.3°F6.3°C 36.3°F2.4°C 76% 8.8 mph SW14.2 kmh SW 13.0 mph20.9 kmh 30.04 in1017.3 mb 0.00 in0.0 mm 0.00 in0.0 mm 0.00 in0.0 mm
12:30 AM 43.3°F6.3°C 36.3°F2.4°C 76% 8.9 mph SW14.3 kmh SW 13.0 mph20.9 kmh 30.04 in1017.3 mb 0.00 in0.0 mm 0.00 in0.0 mm 0.00 in0.0 mm
12:29 AM 43.3°F6.3°C 36.3°F2.4°C 76% 8.6 mph SW13.8 kmh SW 13.0 mph20.9 kmh 30.04 in1017.3 mb 0.00 in0.0 mm 0.00 in0.0 mm 0.00 in0.0 mm
12:28 AM 43.3°F6.3°C 36.3°F2.4°C 76% 8.7 mph SW14.0 kmh SW 13.0 mph20.9 kmh 30.04 in1017.3 mb 0.00 in0.0 mm 0.00 in0.0 mm 0.00 in0.0 mm
12:27 AM 43.3°F6.3°C 36.3°F2.4°C 76% 9.0 mph SW14.5 kmh SW 13.0 mph20.9 kmh 30.04 in1017.3 mb 0.00 in0.0 mm 0.00 in0.0 mm 0.00 in0.0 mm
12:26 AM 43.3°F6.3°C 36.3°F2.4°C 76% 8.7 mph SW14.0 kmh SW 13.0 mph20.9 kmh 30.04 in1017.3 mb 0.00 in0.0 mm 0.00 in0.0 mm 0.00 in0.0 mm
12:25 AM 43.3°F6.3°C 36.3°F2.4°C 76% 8.6 mph SW13.8 kmh SW 13.0 mph20.9 kmh 30.04 in1017.3 mb 0.00 in0.0 mm 0.00 in0.0 mm 0.00 in0.0 mm
12:24 AM 43.2°F6.2°C 36.1°F2.3°C 76% 8.7 mph SW14.0 kmh SW 13.0 mph20.9 kmh 30.04 in1017.3 mb 0.00 in0.0 mm 0.00 in0.0 mm 0.00 in0.0 mm
12:23 AM 43.2°F6.2°C 36.1°F2.3°C 76% 8.8 mph WSW14.2 kmh WSW 13.0 mph20.9 kmh 30.04 in1017.3 mb 0.00 in0.0 mm 0.00 in0.0 mm 0.00 in0.0 mm
12:22 AM 43.2°F6.2°C 36.4°F2.4°C 77% 8.4 mph WSW13.5 kmh WSW 13.0 mph20.9 kmh 30.04 in1017.3 mb 0.00 in0.0 mm 0.00 in0.0 mm 0.00 in0.0 mm
12:21 AM 43.2°F6.2°C 36.4°F2.4°C 77% 8.4 mph WSW13.5 kmh WSW 11.4 mph18.3 kmh 30.04 in1017.3 mb 0.00 in0.0 mm 0.00 in0.0 mm 0.00 in0.0 mm
12:20 AM 43.2°F6.2°C 36.4°F2.4°C 77% 8.9 mph WSW14.3 kmh WSW 15.9 mph25.6 kmh 30.04 in1017.3 mb 0.00 in0.0 mm 0.00 in0.0 mm 0.00 in0.0 mm
12:19 AM 43.2°F6.2°C 36.4°F2.4°C 77% 9.2 mph WSW14.8 kmh WSW 15.9 mph25.6 kmh 30.04 in1017.3 mb 0.00 in0.0 mm 0.00 in0.0 mm 0.00 in0.0 mm
12:18 AM 43.2°F6.2°C 36.4°F2.4°C 77% 9.5 mph WSW15.3 kmh WSW 15.9 mph25.6 kmh 30.04 in1017.3 mb 0.00 in0.0 mm 0.00 in0.0 mm 0.00 in0.0 mm
12:17 AM 43.2°F6.2°C 36.8°F2.7°C 78% 9.6 mph WSW15.4 kmh WSW 15.9 mph25.6 kmh 30.04 in1017.3 mb 0.00 in0.0 mm 0.00 in0.0 mm 0.00 in0.0 mm
12:16 AM 43.2°F6.2°C 36.8°F2.7°C 78% 10.1 mph WSW16.3 kmh WSW 15.9 mph25.6 kmh 30.04 in1017.3 mb 0.00 in0.0 mm 0.00 in0.0 mm 0.00 in0.0 mm
12:15 AM 43.2°F6.2°C 36.8°F2.7°C 78% 10.6 mph WSW17.1 kmh WSW 15.9 mph25.6 kmh 30.04 in1017.3 mb 0.00 in0.0 mm 0.00 in0.0 mm 0.00 in0.0 mm
12:14 AM 43.2°F6.2°C 36.8°F2.7°C 78% 10.8 mph WSW17.4 kmh WSW 15.9 mph25.6 kmh 30.04 in1017.3 mb 0.00 in0.0 mm 0.00 in0.0 mm 0.00 in0.0 mm
12:13 AM 43.2°F6.2°C 36.8°F2.7°C 78% 11.1 mph WSW17.9 kmh WSW 15.9 mph25.6 kmh 30.04 in1017.3 mb 0.00 in0.0 mm 0.00 in0.0 mm 0.00 in0.0 mm
12:12 AM 43.2°F6.2°C 36.8°F2.7°C 78% 11.4 mph WSW18.3 kmh WSW 15.9 mph25.6 kmh 30.04 in1017.3 mb 0.00 in0.0 mm 0.00 in0.0 mm 0.00 in0.0 mm
12:11 AM 43.0°F6.1°C 36.6°F2.6°C 78% 11.7 mph WSW18.8 kmh WSW 15.9 mph25.6 kmh 30.04 in1017.3 mb 0.00 in0.0 mm 0.00 in0.0 mm 0.00 in0.0 mm
12:10 AM 43.0°F6.1°C 36.3°F2.4°C 77% 11.7 mph W18.8 kmh W 15.9 mph25.6 kmh 30.04 in1017.3 mb 0.00 in0.0 mm 0.00 in0.0 mm 0.00 in0.0 mm
12:09 AM 43.2°F6.2°C 36.4°F2.4°C 77% 11.5 mph W18.5 kmh W 12.1 mph19.5 kmh 30.04 in1017.3 mb 0.00 in0.0 mm 0.00 in0.0 mm 0.00 in0.0 mm
12:08 AM 43.2°F6.2°C 36.4°F2.4°C 77% 11.1 mph W17.9 kmh W 12.1 mph19.5 kmh 30.04 in1017.3 mb 0.00 in0.0 mm 0.00 in0.0 mm 0.00 in0.0 mm
12:07 AM 43.2°F6.2°C 36.4°F2.4°C 77% 10.7 mph WSW17.2 kmh WSW 12.1 mph19.5 kmh 30.03 in1016.9 mb 0.00 in0.0 mm 0.00 in0.0 mm 0.00 in0.0 mm
12:06 AM 43.2°F6.2°C 36.4°F2.4°C 77% 10.5 mph W16.9 kmh W 12.1 mph19.5 kmh 30.04 in1017.3 mb 0.00 in0.0 mm 0.00 in0.0 mm 0.00 in0.0 mm
12:05 AM 43.2°F6.2°C 36.4°F2.4°C 77% 10.4 mph W16.7 kmh W 13.6 mph21.9 kmh 30.03 in1016.9 mb 0.00 in0.0 mm 0.00 in0.0 mm 0.00 in0.0 mm
12:04 AM 43.2°F6.2°C 36.4°F2.4°C 77% 10.3 mph W16.6 kmh W 13.6 mph21.9 kmh 30.04 in1017.3 mb 0.00 in0.0 mm 0.00 in0.0 mm 0.00 in0.0 mm
12:03 AM 43.2°F6.2°C 36.4°F2.4°C 77% 9.9 mph W15.9 kmh W 13.6 mph21.9 kmh 30.04 in1017.3 mb 0.00 in0.0 mm 0.00 in0.0 mm 0.00 in0.0 mm
12:02 AM 43.2°F6.2°C 36.4°F2.4°C 77% 9.4 mph W15.1 kmh W 13.6 mph21.9 kmh 30.04 in1017.3 mb 0.00 in0.0 mm 0.00 in0.0 mm 0.00 in0.0 mm
12:01 AM 43.2°F6.2°C 36.4°F2.4°C 77% 9.3 mph WSW15.0 kmh WSW 13.6 mph21.9 kmh 30.04 in1017.3 mb 0.00 in0.0 mm 0.00 in0.0 mm 0.00 in0.0 mm
12:00 AM 43.2°F6.2°C 36.4°F2.4°C 77% 9.0 mph WSW14.5 kmh WSW 13.6 mph21.9 kmh 30.04 in1017.3 mb 0.00 in0.0 mm 0.00 in0.0 mm 0.00 in0.0 mm